M I D A S
Marine Information and Data Acquisition System
Tripno 527 of the Zeeleeuw from 2003-06-30 06:33:44 to 2003-06-30 15:02:40
Back to CruiseResearch ActivitiesStationsMapUnderway DataData graphs

EquipmentUnitsComment
TimeDGPSUTC
LatitudeDGPSDM.mWGS84
LongitudeDGPSDM.mWGS84
TemperatureSBE03/SBE38deg celciusITS90
ConductivitySBE21S/mITS90
SalinitySBE21 Practical Salinity Units
ChlorophylAChelsea fluorimeterg/lCalibrated in Aceton
Missing or incorrect values are displayed as -999
Sea surface data collected by the RV Zeeleeuw from 2003-06-30 06:33:44 to 2003-06-30 15:02:40
                                                                                    Next 1000 lines
Time Latitude Longitude Temperature Conductivity Salinity ChlorophylA
2003-06-30 06:33:52 51°13.59 2°56.12 21.9666 0.060918 0.29691 -0.74754
2003-06-30 06:33:56 51°13.59 2°56.12 21.967663 0.060814 0.296395 -0.71383
2003-06-30 06:34:02 51°13.59 2°56.12 21.968804 0.06123 0.298471 -0.71383
2003-06-30 06:34:06 51°13.59 2°56.12 21.968804 0.06123 0.298471 -0.71383
2003-06-30 06:34:12 51°13.59 2°56.12 21.969119 0.061334 0.298998 -0.781249
2003-06-30 06:34:16 51°13.59 2°56.12 21.969355 0.06175 0.301079 -0.74754
2003-06-30 06:34:22 51°13.59 2°56.12 21.969985 0.06123 0.298483 -0.74754
2003-06-30 06:34:28 51°13.59 2°56.12 21.97026 0.061438 0.299525 -0.781249
2003-06-30 06:34:32 51°13.59 2°56.12 21.970103 0.061438 0.299525 -0.74754
2003-06-30 06:34:36 51°13.59 2°56.12 21.970103 0.061438 0.299525 -0.74754
2003-06-30 06:34:42 51°13.59 2°56.12 21.97089 0.06175 0.301083 -0.74754
2003-06-30 06:34:46 51°13.59 2°56.12 21.971284 0.06175 0.301083 -0.71383
2003-06-30 06:34:52 51°13.59 2°56.12 21.971362 0.061438 0.29953 -0.74754
2003-06-30 06:34:56 51°13.59 2°56.12 21.972818 0.061854 0.301606 -0.680121
2003-06-30 06:35:02 51°13.59 2°56.12 21.973251 0.061646 0.300572 -0.74754
2003-06-30 06:35:08 51°13.59 2°56.12 21.973251 0.061646 0.300572 -0.74754
2003-06-30 06:35:12 51°13.59 2°56.12 21.970969 0.061854 0.301619 -0.74754
2003-06-30 06:35:16 51°13.59 2°56.12 21.973015 0.063934 0.312029 -0.74754
2003-06-30 06:35:22 51°13.59 2°56.12 21.972818 0.065077 0.31776 -0.74754
2003-06-30 06:35:26 51°13.59 2°56.12 21.974865 0.065701 0.320891 -0.74754
2003-06-30 06:35:32 51°13.59 2°56.12 21.976321 0.065805 0.321416 -0.74754
2003-06-30 06:35:36 51°13.59 2°56.12 21.976321 0.065805 0.321416 -0.74754
2003-06-30 06:35:42 51°13.59 2°56.12 21.976478 0.065909 0.321942 -0.74754
2003-06-30 06:35:48 51°13.59 2°56.12 21.976636 0.065805 0.321416 -0.71383
2003-06-30 06:35:52 51°13.59 2°56.12 21.976557 0.065597 0.320379 -0.71383
2003-06-30 06:35:56 51°13.59 2°56.12 21.9764 0.065909 0.321938 -0.71383
2003-06-30 06:36:02 51°13.59 2°56.12 21.976321 0.065805 0.321421 -0.71383
2003-06-30 06:36:06 51°13.59 2°56.12 21.976321 0.065805 0.321421 -0.71383
2003-06-30 06:36:12 51°13.59 2°56.12 21.976714 0.066429 0.324554 -0.74754
2003-06-30 06:36:16 51°13.59 2°56.12 21.978643 0.066533 0.325075 -0.781249
2003-06-30 06:36:22 51°13.59 2°56.12 21.979115 0.066429 0.324554 -0.74754
2003-06-30 06:36:26 51°13.59 2°56.12 21.980728 0.065805 0.321425 -0.74754
2003-06-30 06:36:32 51°13.59 2°56.12 21.981948 0.064661 0.315686 -0.74754
2003-06-30 06:36:36 51°13.59 2°56.12 21.981948 0.064661 0.315686 -0.74754
2003-06-30 06:36:42 51°13.59 2°56.12 21.98246 0.065909 0.321947 -0.74754
2003-06-30 06:36:46 51°13.59 2°56.12 21.984388 0.064973 0.317252 -0.74754
2003-06-30 06:36:52 51°13.59 2°56.12 21.984624 0.064557 0.315169 -0.71383
2003-06-30 06:36:56 51°13.59 2°56.11 21.983876 0.064869 0.316732 -0.74754
2003-06-30 06:37:02 51°13.59 2°56.11 21.983483 0.064869 0.316736 -0.71383
2003-06-30 06:37:06 51°13.59 2°56.11 21.983483 0.064869 0.316736 -0.71383
2003-06-30 06:37:12 51°13.59 2°56.11 21.983797 0.064765 0.316219 -0.74754
2003-06-30 06:37:16 51°13.59 2°56.11 21.984309 0.062686 0.305805 -0.74754
2003-06-30 06:37:22 51°13.59 2°56.11 21.985529 0.064557 0.315178 -0.74754
2003-06-30 06:37:28 51°13.59 2°56.11 21.987024 0.065181 0.318307 -0.74754
2003-06-30 06:37:32 51°13.59 2°56.11 21.987693 0.064869 0.316749 -0.71383
2003-06-30 06:37:36 51°13.6 2°56.11 21.987693 0.064869 0.316749 -0.71383
2003-06-30 06:37:42 51°13.6 2°56.11 21.988244 0.065077 0.3178 -0.71383
2003-06-30 06:37:46 51°13.6 2°56.1 21.988755 0.064869 0.316758 -0.71383
2003-06-30 06:37:52 51°13.6 2°56.1 21.989463 0.064038 0.312588 -0.71383
2003-06-30 06:37:56 51°13.6 2°56.1 21.990093 0.065389 0.319363 -0.74754
2003-06-30 06:38:02 51°13.6 2°56.1 21.991549 0.06279 0.30635 -0.74754
2003-06-30 06:38:08 51°13.6 2°56.09 21.991549 0.06279 0.30635 -0.74754
2003-06-30 06:38:12 51°13.6 2°56.09 21.992454 0.063934 0.312072 -0.71383
2003-06-30 06:38:18 51°13.6 2°56.09 21.993162 0.062166 0.303231 -0.74754
2003-06-30 06:38:22 51°13.6 2°56.08 21.993476 0.062998 0.307394 -0.74754
2003-06-30 06:38:28 51°13.6 2°56.08 21.993516 0.063102 0.30791 -0.71383
2003-06-30 06:38:32 51°13.6 2°56.07 21.994657 0.063414 0.309479 -0.74754
2003-06-30 06:38:38 51°13.61 2°56.07 21.994657 0.063414 0.309479 -0.74754
2003-06-30 06:38:44 51°13.61 2°56.06 21.995208 0.063934 0.312085 -0.71383
2003-06-30 06:38:48 51°13.61 2°56.05 21.994932 0.06279 0.306358 -0.74754
2003-06-30 06:38:52 51°13.61 2°56.05 21.995601 0.06279 0.306358 -0.781249
2003-06-30 06:38:58 51°13.61 2°56.04 21.995444 0.062686 0.305843 -0.71383
2003-06-30 06:39:02 51°13.61 2°56.03 21.995758 0.063206 0.308443 -0.74754
2003-06-30 06:39:08 51°13.62 2°56.02 21.995758 0.063206 0.308443 -0.74754
2003-06-30 06:39:12 51°13.62 2°56.01 21.996742 0.063414 0.309487 -0.71383
2003-06-30 06:39:18 51°13.62 2°56 21.996309 0.065285 0.318864 -0.781249
2003-06-30 06:39:22 51°13.62 2°56 21.996978 0.064142 0.313134 -0.71383
2003-06-30 06:39:28 51°13.63 2°55.98 21.997725 0.064869 0.316788 -0.71383
2003-06-30 06:39:32 51°13.63 2°55.98 21.998079 0.065701 0.320966 -0.74754
2003-06-30 06:39:38 51°13.63 2°55.96 21.998079 0.065701 0.320966 -0.74754
2003-06-30 06:39:42 51°13.64 2°55.95 21.998591 0.064661 0.315751 -0.71383
2003-06-30 06:39:48 51°13.64 2°55.94 21.998591 0.064453 0.314714 -0.74754
2003-06-30 06:39:52 51°13.64 2°55.93 21.99867 0.065597 0.320449 -0.74754
2003-06-30 06:39:58 51°13.65 2°55.92 21.997725 0.066741 0.326195 -0.74754
2003-06-30 06:40:02 51°13.65 2°55.91 21.997057 0.066741 0.326199 -0.74754
2003-06-30 06:40:08 51°13.65 2°55.9 21.997057 0.066741 0.326199 -0.74754
2003-06-30 06:40:12 51°13.65 2°55.89 21.997804 0.066949 0.327248 -0.71383
2003-06-30 06:40:18 51°13.66 2°55.88 21.99084 0.070068 0.342935 -0.71383
2003-06-30 06:40:22 51°13.66 2°55.87 -999 0.06934 0.339278 -0.71383
2003-06-30 06:40:28 51°13.66 2°55.86 47.791013 0.066637 0.325691 -0.74754
2003-06-30 06:40:32 51°13.66 2°55.85 44.966909 0.066429 0.324648 -0.74754
2003-06-30 06:40:36 51°13.66 2°55.85 44.966909 0.066429 0.324648 -0.74754
2003-06-30 06:40:42 51°13.66 2°55.84 44.19887 0.066325 0.324121 -0.74754
2003-06-30 06:40:48 51°13.66 2°55.83 43.434515 0.066221 0.323595 -0.74754
2003-06-30 06:40:52 51°13.66 2°55.82 43.618154 0.067157 0.328296 -0.74754
2003-06-30 06:40:56 51°13.66 2°55.82 46.937079 0.067053 0.327779 -0.74754
2003-06-30 06:41:02 51°13.66 2°55.81 45.163534 0.067677 0.330911 -0.74754
2003-06-30 06:41:06 51°13.66 2°55.8 45.163534 0.067677 0.330911 -0.74754
2003-06-30 06:41:12 51°13.66 2°55.79 43.074255 0.068301 0.334041 -0.781249
2003-06-30 06:41:16 51°13.66 2°55.79 43.936098 0.067885 0.33196 -0.74754
2003-06-30 06:41:22 51°13.66 2°55.78 41.834947 0.068197 0.333528 -0.74754
2003-06-30 06:41:28 51°13.66 2°55.78 42.979909 0.069652 0.340852 -0.74754
2003-06-30 06:41:32 51°13.66 2°55.77 46.753566 0.068197 0.333537 -0.74754
2003-06-30 06:41:36 51°13.66 2°55.77 46.753566 0.068197 0.333537 -0.74754
2003-06-30 06:41:42 51°13.66 2°55.77 44.852483 0.067469 0.329876 -0.74754
2003-06-30 06:41:46 51°13.66 2°55.77 45.82098 0.068197 0.333542 -0.71383
2003-06-30 06:41:52 51°13.66 2°55.77 42.824228 0.067573 0.330407 -0.74754
2003-06-30 06:41:56 51°13.66 2°55.77 44.250187 0.069028 0.337723 -0.781249
2003-06-30 06:42:02 51°13.67 2°55.77 44.622784 0.068925 0.337205 -0.74754
2003-06-30 06:42:08 51°13.67 2°55.77 44.622784 0.068925 0.337205 -0.74754
2003-06-30 06:42:12 51°13.67 2°55.77 45.151882 0.069548 0.340347 -0.74754
2003-06-30 06:42:16 51°13.67 2°55.77 45.590117 0.070172 0.343496 -0.74754
2003-06-30 06:42:22 51°13.67 2°55.77 43.625351 0.071732 0.351357 -0.74754
2003-06-30 06:42:26 51°13.67 2°55.77 47.663098 0.07298 0.357664 -0.781249
2003-06-30 06:42:32 51°13.68 2°55.77 43.637007 0.073812 0.361867 -0.71383
2003-06-30 06:42:36 51°13.68 2°55.77 43.637007 0.073812 0.361867 -0.71383
2003-06-30 06:42:42 51°13.68 2°55.77 43.513314 0.073708 0.361347 -0.74754
2003-06-30 06:42:48 51°13.69 2°55.77 45.416172 0.073812 0.361882 -0.781249
2003-06-30 06:42:52 51°13.69 2°55.77 44.456053 0.074332 0.364502 -0.71383
2003-06-30 06:42:56 51°13.69 2°55.77 44.312917 0.075787 0.371864 -0.74754
2003-06-30 06:43:02 51°13.7 2°55.77 43.283055 0.074955 0.367654 -0.781249
2003-06-30 06:43:06 51°13.7 2°55.77 43.283055 0.074955 0.367654 -0.781249
2003-06-30 06:43:12 51°13.71 2°55.76 45.725601 0.073188 0.358723 -0.781249
2003-06-30 06:43:16 51°13.71 2°55.76 45.277365 0.072356 0.354522 -0.74754
2003-06-30 06:43:22 51°13.72 2°55.75 44.038074 0.069028 0.337756 -0.74754
2003-06-30 06:43:26 51°13.72 2°55.75 42.772 0.067573 0.330416 -0.74754
2003-06-30 06:43:32 51°13.73 2°55.74 44.913449 0.066221 0.323622 -0.71383
2003-06-30 06:43:36 51°13.73 2°55.74 44.913449 0.066221 0.323622 -0.71383
2003-06-30 06:43:42 51°13.74 2°55.73 47.010661 0.064765 0.316311 -0.74754
2003-06-30 06:43:48 51°13.75 2°55.72 46.116875 0.064557 0.315269 -0.74754
2003-06-30 06:43:52 51°13.75 2°55.72 46.930416 0.062998 0.307462 -0.74754
2003-06-30 06:43:56 51°13.76 2°55.71 47.187153 0.062998 0.307466 -0.74754
2003-06-30 06:44:02 51°13.76 2°55.71 44.792617 0.062582 0.305386 -0.71383
2003-06-30 06:44:06 51°13.77 2°55.7 44.792617 0.062582 0.305386 -0.71383
2003-06-30 06:44:12 51°13.78 2°55.69 45.347438 0.062062 0.302791 -0.71383
2003-06-30 06:44:16 51°13.79 2°55.69 43.339173 0.061646 0.300716 -0.74754
2003-06-30 06:44:22 51°13.79 2°55.68 44.031889 0.061646 0.300716 -0.71383
2003-06-30 06:44:28 51°13.8 2°55.67 45.091234 0.061022 0.297608 -0.71383
2003-06-30 06:44:32 51°13.81 2°55.66 43.775956 0.060295 0.293975 -0.74754
2003-06-30 06:44:36 51°13.82 2°55.66 43.775956 0.060295 0.293975 -0.74754
2003-06-30 06:44:42 51°13.83 2°55.65 42.093478 0.060191 0.293456 -0.71383
2003-06-30 06:44:46 51°13.84 2°55.64 45.017907 0.059879 0.2919 -0.74754
2003-06-30 06:44:52 51°13.85 2°55.64 43.411025 0.060191 0.293464 -0.74754
2003-06-30 06:44:56 51°13.85 2°55.63 43.280607 0.060087 0.292949 -0.71383
2003-06-30 06:45:02 51°13.86 2°55.62 41.253873 0.060814 0.29659 -0.74754
2003-06-30 06:45:08 51°13.88 2°55.62 41.253873 0.060814 0.29659 -0.74754
2003-06-30 06:45:12 51°13.88 2°55.61 42.790865 0.060191 0.29348 -0.74754
2003-06-30 06:45:16 51°13.89 2°55.61 41.503458 0.059567 0.290368 -0.71383
2003-06-30 06:45:22 51°13.9 2°55.6 44.810417 0.060191 0.293484 -0.74754
2003-06-30 06:45:28 51°13.92 2°55.59 44.235072 0.060918 0.297122 -0.71383
2003-06-30 06:45:32 51°13.92 2°55.58 43.021105 0.060918 0.297138 -0.781249
2003-06-30 06:45:36 51°13.93 2°55.58 43.021105 0.060918 0.297138 -0.781249
2003-06-30 06:45:42 51°13.95 2°55.57 45.748919 0.060295 0.294019 -0.74754
2003-06-30 06:45:46 51°13.95 2°55.56 43.199466 0.059775 0.291425 -0.74754
2003-06-30 06:45:52 51°13.97 2°55.55 44.795608 0.059567 0.290388 -0.74754
2003-06-30 06:45:56 51°13.98 2°55.55 44.50845 0.060087 0.292981 -0.74754
2003-06-30 06:46:02 51°13.99 2°55.54 43.564605 0.058735 0.286241 -0.74754
2003-06-30 06:46:08 51°14.01 2°55.53 43.564605 0.058735 0.286241 -0.74754
2003-06-30 06:46:12 51°14.02 2°55.52 42.304721 0.058527 0.2852 -0.74754
2003-06-30 06:46:16 51°14.02 2°55.52 43.41496 0.060607 0.295585 -0.74754
2003-06-30 06:46:22 51°14.04 2°55.51 43.058897 0.059463 0.289885 -0.74754
2003-06-30 06:46:26 51°14.05 2°55.5 42.565498 0.058423 0.284702 -0.74754
2003-06-30 06:46:32 51°14.06 2°55.49 43.004269 0.058111 0.28314 -0.74754
2003-06-30 06:46:36 51°14.07 2°55.48 43.004269 0.058111 0.28314 -0.74754
2003-06-30 06:46:42 51°14.09 2°55.47 41.671196 0.058319 0.284172 -0.74754
2003-06-30 06:46:48 51°14.1 2°55.45 43.621336 0.058111 0.283144 -0.74754
2003-06-30 06:46:52 51°14.11 2°55.45 43.22959 0.058007 0.282618 -0.74754
2003-06-30 06:46:56 51°14.12 2°55.44 43.230904 0.058319 0.28418 -0.71383
2003-06-30 06:47:02 51°14.13 2°55.42 42.593653 0.058631 0.285738 -0.71383
2003-06-30 06:47:06 51°14.14 2°55.42 42.593653 0.058631 0.285738 -0.71383
2003-06-30 06:47:12 51°14.15 2°55.4 42.174917 0.058111 0.283148 -0.74754
2003-06-30 06:47:16 51°14.16 2°55.39 44.196153 0.058527 0.285224 -0.74754
2003-06-30 06:47:22 51°14.18 2°55.38 43.040183 0.058943 0.287305 -0.74754
2003-06-30 06:47:28 51°14.19 2°55.37 42.720279 0.059255 0.288868 -0.74754
2003-06-30 06:47:32 51°14.2 2°55.36 42.684468 0.058527 0.285239 -0.71383
2003-06-30 06:47:36 51°14.21 2°55.35 42.684468 0.058527 0.285239 -0.71383
2003-06-30 06:47:42 51°14.22 2°55.33 40.95413 0.059463 0.289905 -0.74754
2003-06-30 06:47:48 51°14.23 2°55.31 41.239704 0.059359 0.289398 -0.74754
2003-06-30 06:47:52 51°14.24 2°55.3 43.111874 0.058423 0.284733 -0.71383
2003-06-30 06:47:56 51°14.25 2°55.29 43.449655 0.058735 0.286288 -0.71383
2003-06-30 06:48:02 51°14.26 2°55.27 41.834248 0.058631 0.285769 -0.71383
2003-06-30 06:48:06 51°14.26 2°55.26 41.834248 0.058631 0.285769 -0.71383
2003-06-30 06:48:12 51°14.28 2°55.24 41.139873 0.057176 0.278515 -0.74754
2003-06-30 06:48:16 51°14.28 2°55.22 40.116218 0.057695 0.281107 -0.74754
2003-06-30 06:48:22 51°14.29 2°55.21 39.913176 0.057903 0.282143 -0.71383
2003-06-30 06:48:28 51°14.3 2°55.18 39.774365 0.056968 0.277484 -0.71383
2003-06-30 06:48:32 51°14.31 2°55.17 40.474564 0.056448 0.274898 -0.71383
2003-06-30 06:48:36 51°14.32 2°55.16 40.474564 0.056448 0.274898 -0.71383
2003-06-30 06:48:42 51°14.33 2°55.14 40.800032 0.056968 0.277484 -0.71383
2003-06-30 06:48:46 51°14.33 2°55.12 40.313897 0.058735 0.286299 -0.74754
2003-06-30 06:48:52 51°14.35 2°55.1 42.497404 0.059151 0.288373 -0.781249
2003-06-30 06:48:56 51°14.35 2°55.09 42.888725 0.056864 0.276982 -0.71383
2003-06-30 06:49:02 51°14.36 2°55.06 40.49637 0.056448 0.274913 -0.74754
2003-06-30 06:49:08 51°14.38 2°55.04 40.49637 0.056448 0.274913 -0.74754
2003-06-30 06:49:12 51°14.39 2°55.03 43.314462 0.05728 0.279056 -0.74754
2003-06-30 06:49:16 51°14.39 2°55.02 42.045334 0.061022 0.297731 -0.74754
2003-06-30 06:49:22 51°14.41 2°55 41.401106 0.061958 0.302425 -0.71383
2003-06-30 06:49:26 51°14.42 2°54.98 41.603002 0.061958 0.302441 -0.781249
2003-06-30 06:49:32 51°14.43 2°54.96 42.596272 0.059983 0.292575 -0.680121
2003-06-30 06:49:36 51°14.44 2°54.95 42.596272 0.059983 0.292575 -0.680121
2003-06-30 06:49:42 51°14.45 2°54.93 42.398749 0.06435 0.314439 -0.74754
2003-06-30 06:49:46 51°14.46 2°54.91 40.649436 0.060918 0.297281 -0.74754
2003-06-30 06:49:52 51°14.47 2°54.89 41.431798 0.056656 0.276 -0.71383
2003-06-30 06:49:56 51°14.48 2°54.88 41.080285 0.064142 0.313393 -0.74754
2003-06-30 06:50:02 51°14.49 2°54.85 40.551292 0.060814 0.296725 -0.74754
2003-06-30 06:50:08 51°14.5 2°54.83 40.551292 0.060814 0.296725 -0.74754
2003-06-30 06:50:12 51°14.51 2°54.82 39.86271 0.058423 0.28478 -0.71383
2003-06-30 06:50:16 51°14.52 2°54.81 42.362678 0.065805 0.321713 -0.71383
2003-06-30 06:50:22 51°14.54 2°54.79 42.139324 0.063934 0.312347 -0.71383
2003-06-30 06:50:26 51°14.54 2°54.78 40.650638 0.063726 0.311301 -0.74754
2003-06-30 06:50:32 51°14.56 2°54.76 40.205743 0.061542 0.300354 -0.71383
2003-06-30 06:50:36 51°14.57 2°54.75 40.205743 0.061542 0.300354 -0.71383
2003-06-30 06:50:42 51°14.58 2°54.73 39.913487 0.063726 0.311266 -0.74754
2003-06-30 06:50:48 51°14.6 2°54.71 39.301339 0.060399 0.294631 -0.74754
2003-06-30 06:50:52 51°14.61 2°54.7 39.598294 0.060814 0.296741 -0.74754
2003-06-30 06:50:56 51°14.62 2°54.69 39.912056 0.062166 0.303506 -0.74754
2003-06-30 06:51:02 51°14.64 2°54.68 40.262749 0.05728 0.279121 -0.74754
2003-06-30 06:51:06 51°14.65 2°54.67 40.262749 0.05728 0.279121 -0.74754
2003-06-30 06:51:12 51°14.66 2°54.66 40.313557 0.057695 0.28118 -0.74754
2003-06-30 06:51:16 51°14.67 2°54.65 40.254232 0.056968 0.277545 -0.781249
2003-06-30 06:51:22 51°14.69 2°54.63 39.967589 0.059463 0.28998 -0.74754
2003-06-30 06:51:28 51°14.71 2°54.62 39.415551 0.062166 0.303498 -0.781249
2003-06-30 06:51:32 51°14.72 2°54.62 39.478992 0.058735 0.286374 -0.74754
2003-06-30 06:51:36 51°14.73 2°54.61 39.478992 0.058735 0.286374 -0.74754
2003-06-30 06:51:42 51°14.75 2°54.6 39.302499 0.057383 0.279635 -0.74754
2003-06-30 06:51:46 51°14.76 2°54.59 39.118208 0.062062 0.303007 -0.74754
2003-06-30 06:51:52 51°14.78 2°54.58 41.737416 0.058631 0.285887 -0.71383
2003-06-30 06:51:56 51°14.79 2°54.58 42.623093 0.059567 0.290555 -0.71383
2003-06-30 06:52:02 51°14.81 2°54.57 40.690793 0.06071 0.296266 -0.74754
2003-06-30 06:52:06 51°14.82 2°54.56 40.690793 0.06071 0.296266 -0.74754
2003-06-30 06:52:12 51°14.84 2°54.56 41.016909 0.06383 0.311877 -0.781249
2003-06-30 06:52:16 51°14.85 2°54.55 41.864141 0.06279 0.306687 -0.74754
2003-06-30 06:52:22 51°14.87 2°54.55 42.252376 0.066221 0.323908 -0.74754
2003-06-30 06:52:28 51°14.89 2°54.54 42.839119 0.063622 0.310861 -0.74754
2003-06-30 06:52:32 51°14.9 2°54.54 41.392737 0.061022 0.297841 -0.74754
2003-06-30 06:52:36 51°14.91 2°54.54 41.392737 0.061022 0.297841 -0.74754
2003-06-30 06:52:42 51°14.93 2°54.53 42.153248 0.06435 0.314509 -0.74754
2003-06-30 06:52:46 51°14.95 2°54.53 41.028508 0.061438 0.299937 -0.781249
2003-06-30 06:52:52 51°14.97 2°54.53 40.682998 0.06435 0.314539 -0.74754
2003-06-30 06:52:56 51°14.98 2°54.52 39.5705 0.066949 0.3276 -0.74754
2003-06-30 06:53:02 51°15 2°54.52 41.096566 0.066637 0.326028 -0.74754
2003-06-30 06:53:08 51°15.02 2°54.52 41.096566 0.066637 0.326028 -0.74754
2003-06-30 06:53:12 51°15.03 2°54.51 40.379674 0.065909 0.322368 -0.74754
2003-06-30 06:53:16 51°15.04 2°54.51 41.015774 0.062582 0.305675 -0.74754
2003-06-30 06:53:22 51°15.06 2°54.51 40.335313 0.06123 0.298922 -0.781249
2003-06-30 06:53:28 51°15.08 2°54.5 40.891517 0.064246 0.314022 -0.74754
2003-06-30 06:53:32 51°15.09 2°54.5 39.696903 0.063726 0.311408 -0.74754
2003-06-30 06:53:42 51°15.12 2°54.49 40.88912 0.063206 0.308812 -0.74754
2003-06-30 06:53:48 51°15.14 2°54.48 40.58912 0.062998 0.307775 -0.71383
2003-06-30 06:53:52 51°15.15 2°54.48 41.077034 0.059567 0.290611 -0.74754
2003-06-30 06:53:56 51°15.16 2°54.47 40.980045 0.067365 0.329709 -0.74754
2003-06-30 06:54:00 51°15.18 2°54.47 41.253597 0.062478 0.305193 -0.781249
2003-06-30 06:54:08 51°15.2 2°54.46 41.253597 0.062478 0.305193 -0.781249
2003-06-30 06:54:12 51°15.21 2°54.45 41.283824 0.066221 0.32397 -0.74754
2003-06-30 06:54:16 51°15.23 2°54.45 41.934244 0.061334 0.299503 -0.71383
2003-06-30 06:54:22 51°15.24 2°54.44 41.294192 0.061646 0.301072 -0.74754
2003-06-30 06:54:26 51°15.26 2°54.43 41.34568 0.058631 0.285981 -0.71383
2003-06-30 06:54:32 51°15.28 2°54.42 40.169845 0.060087 0.293223 -0.74754
2003-06-30 06:54:36 51°15.29 2°54.41 40.169845 0.060087 0.293223 -0.74754
2003-06-30 06:54:42 51°15.31 2°54.41 41.272934 0.064973 0.317681 -0.74754
2003-06-30 06:54:48 51°15.33 2°54.4 41.58551 0.06175 0.301534 -0.781249
2003-06-30 06:54:52 51°15.34 2°54.4 42.018235 0.061958 0.302587 -0.74754
2003-06-30 06:54:56 51°15.35 2°54.39 40.502485 0.060814 0.296888 -0.71383
2003-06-30 06:55:02 51°15.37 2°54.39 40.297553 0.063102 0.308359 -0.74754
2003-06-30 06:55:06 51°15.38 2°54.39 40.297553 0.063102 0.308359 -0.74754
2003-06-30 06:55:12 51°15.4 2°54.38 41.464004 0.067053 0.328195 -0.74754
2003-06-30 06:55:16 51°15.41 2°54.38 42.777197 0.068821 0.337134 -0.74754
2003-06-30 06:55:22 51°15.43 2°54.38 41.360319 0.066325 0.324582 -0.74754
2003-06-30 06:55:28 51°15.45 2°54.38 40.708229 0.069028 0.338181 -0.74754
2003-06-30 06:55:32 51°15.46 2°54.38 49.31806 0.069236 0.339223 -0.74754
2003-06-30 06:55:36 51°15.48 2°54.38 49.31806 0.069236 0.339223 -0.74754
2003-06-30 06:55:42 51°15.5 2°54.38 41.041118 2.297547 14.048769 -0.578993
2003-06-30 06:55:46 51°15.51 2°54.38 40.678098 2.307006 14.182093 3.702101
2003-06-30 06:55:52 51°15.53 2°54.38 41.929479 4.119179 27.26697 3.904358
2003-06-30 06:55:56 51°15.54 2°54.38 43.414185 4.291294 28.909108 4.072905
2003-06-30 06:56:02 51°15.56 2°54.38 40.823843 4.354063 29.904903 9.938341
2003-06-30 06:56:08 51°15.58 2°54.39 40.823843 4.354063 29.904903 9.938341
2003-06-30 06:56:12 51°15.59 2°54.39 40.488402 4.347531 30.263917 8.387708
2003-06-30 06:56:16 51°15.6 2°54.39 40.45232 4.409983 31.065495 7.241589
2003-06-30 06:56:22 51°15.62 2°54.39 41.385069 4.413574 31.286249 6.803366
2003-06-30 06:56:28 51°15.64 2°54.39 42.270906 4.4198 31.498893 6.735947
2003-06-30 06:56:32 51°15.65 2°54.39 42.247206 4.46337 31.956049 6.466272
2003-06-30 06:56:36 51°15.67 2°54.39 42.247206 4.46337 31.956049 6.466272
2003-06-30 06:56:42 51°15.69 2°54.38 41.191672 4.49808 32.303456 6.230306
2003-06-30 06:56:46 51°15.7 2°54.38 41.905044 4.49576 32.335743 6.02805
2003-06-30 06:56:52 51°15.72 2°54.38 41.069429 4.500192 32.413921 5.859503
2003-06-30 06:56:56 51°15.73 2°54.38 41.638187 4.491963 32.378882 5.792084
2003-06-30 06:57:02 51°15.75 2°54.38 41.979511 4.49439 32.41896 5.690956
2003-06-30 06:57:08 51°15.77 2°54.38 41.979511 4.49439 32.41896 5.690956
2003-06-30 06:57:12 51°15.78 2°54.37 41.44691 4.49629 32.449424 5.690956
2003-06-30 06:57:16 51°15.79 2°54.37 41.664254 4.485635 32.390444 5.623537
2003-06-30 06:57:22 51°15.81 2°54.37 40.806524 4.481204 32.365472 5.556118
2003-06-30 06:57:26 51°15.83 2°54.37 40.520609 4.485213 32.410302 5.623537
2003-06-30 06:57:32 51°15.84 2°54.37 41.168365 4.447447 32.118193 5.522409
2003-06-30 06:57:36 51°15.86 2°54.37 41.168365 4.447447 32.118193 5.522409
2003-06-30 06:57:42 51°15.88 2°54.37 39.468484 4.336899 31.234891 5.556118
2003-06-30 06:57:48 51°15.9 2°54.36 41.565424 4.473187 32.342315 5.45499
2003-06-30 06:57:52 51°15.91 2°54.36 40.71097 4.475719 32.366034 5.4887
2003-06-30 06:57:56 51°15.92 2°54.35 40.884602 4.483104 32.426844 5.522409
2003-06-30 06:58:02 51°15.94 2°54.35 39.970325 4.48532 32.452909 5.589828
2003-06-30 06:58:06 51°15.95 2°54.34 39.970325 4.48532 32.452909 5.589828
2003-06-30 06:58:12 51°15.97 2°54.33 41.51023 4.485425 32.458651 5.589828
2003-06-30 06:58:16 51°15.98 2°54.32 40.910201 4.490489 32.503445 5.724665
2003-06-30 06:58:22 51°16 2°54.32 41.63706 4.477724 32.401756 5.724665
2003-06-30 06:58:26 51°16.01 2°54.31 41.959459 4.466331 32.312824 5.859503
2003-06-30 06:58:32 51°16.03 2°54.31 42.748262 4.489751 32.506718 5.960631
2003-06-30 06:58:36 51°16.05 2°54.3 42.748262 4.489751 32.506718 5.960631
2003-06-30 06:58:42 51°16.06 2°54.3 42.113133 4.492388 32.528621 5.926922
2003-06-30 06:58:48 51°16.08 2°54.3 42.423823 4.485109 32.472395 5.994341
2003-06-30 06:58:52 51°16.09 2°54.29 42.773742 4.487008 32.487227 5.859503
2003-06-30 06:58:56 51°16.11 2°54.29 41.840051 4.486164 32.480937 5.859503
2003-06-30 06:59:02 51°16.12 2°54.28 42.729057 4.481206 32.440248 5.792084
2003-06-30 06:59:06 51°16.13 2°54.28 42.729057 4.481206 32.440248 5.792084
2003-06-30 06:59:12 51°16.15 2°54.27 42.603618 4.486797 32.486607 5.758375
2003-06-30 06:59:16 51°16.16 2°54.27 42.599283 4.475298 32.394052 5.690956
2003-06-30 06:59:22 51°16.17 2°54.26 40.780461 4.48205 32.453059 5.690956
2003-06-30 06:59:28 51°16.19 2°54.26 42.659141 4.47361 32.384186 5.589828
2003-06-30 06:59:32 51°16.2 2°54.25 43.514267 4.479834 32.432404 5.589828
2003-06-30 06:59:36 51°16.2 2°54.25 43.514267 4.479834 32.432404 5.589828
2003-06-30 06:59:42 51°16.22 2°54.24 43.03039 4.476458 32.40833 5.623537
2003-06-30 06:59:46 51°16.22 2°54.23 42.704285 4.478674 32.42681 5.522409
2003-06-30 06:59:52 51°16.23 2°54.23 42.210676 4.446076 32.165188 5.589828
2003-06-30 06:59:56 51°16.24 2°54.22 41.95415 4.479518 32.433644 5.522409
2003-06-30 07:00:02 51°16.25 2°54.22 42.145802 4.472028 32.370835 5.556118
2003-06-30 07:00:08 51°16.25 2°54.21 42.145802 4.472028 32.370835 5.556118
2003-06-30 07:00:12 51°16.26 2°54.21 42.835486 4.478463 32.426731 5.556118
2003-06-30 07:00:16 51°16.26 2°54.21 43.593853 4.478463 32.425102 5.556118
2003-06-30 07:00:22 51°16.27 2°54.21 42.370105 4.463905 32.308882 5.556118
2003-06-30 07:00:28 51°16.27 2°54.2 42.150796 4.477197 32.414852 5.589828
2003-06-30 07:00:32 51°16.27 2°54.2 45.194742 4.47899 32.429373 5.589828
2003-06-30 07:00:36 51°16.27 2°54.2 45.194742 4.47899 32.429373 5.589828
2003-06-30 07:00:42 51°16.27 2°54.2 42.176188 4.476669 32.408953 5.657247
2003-06-30 07:00:48 51°16.27 2°54.19 44.078605 4.477091 32.411283 5.589828
2003-06-30 07:00:52 51°16.27 2°54.19 46.656871 4.479412 32.430073 5.657247
2003-06-30 07:00:56 51°16.27 2°54.19 -999 4.473399 32.378682 5.657247
2003-06-30 07:01:02 51°16.27 2°54.19 -999 4.479412 32.428987 5.690956
2003-06-30 07:01:08 51°16.27 2°54.18 -999 4.479412 32.428987 5.690956
2003-06-30 07:01:12 51°16.27 2°54.18 -999 4.477197 32.408338 5.724665
2003-06-30 07:01:16 51°16.27 2°54.18 46.013009 4.474665 32.387302 5.758375
2003-06-30 07:01:22 51°16.27 2°54.18 45.690669 4.452722 32.206538 5.758375
2003-06-30 07:01:26 51°16.27 2°54.18 45.035133 4.451984 32.202184 5.690956
2003-06-30 07:01:32 51°16.27 2°54.17 41.922165 4.4619 32.281848 5.724665
2003-06-30 07:01:36 51°16.27 2°54.17 41.922165 4.4619 32.281848 5.724665
2003-06-30 07:01:40 51°16.27 2°54.17 43.632488 4.46612 32.315445 5.792084
2003-06-30 07:01:50 51°16.27 2°54.17 42.281454 4.478885 32.417659 5.758375
2003-06-30 07:01:54 51°16.27 2°54.16 42.281454 4.478885 32.417659 5.758375
2003-06-30 07:02:00 51°16.27 2°54.16 42.242701 4.482155 32.445218 5.657247
2003-06-30 07:02:04 51°16.27 2°54.16 43.51653 4.461689 32.27906 5.690956
2003-06-30 07:02:10 51°16.27 2°54.16 42.18115 4.482155 32.443588 5.623537
2003-06-30 07:02:14 51°16.27 2°54.16 42.834196 4.485531 32.471461 5.758375
2003-06-30 07:02:20 51°16.27 2°54.16 43.054586 4.481417 32.440326 5.724665
2003-06-30 07:02:24 51°16.27 2°54.15 43.054586 4.481417 32.440326 5.724665
2003-06-30 07:02:28 51°16.27 2°54.15 44.755127 4.466225 32.315757 5.758375
2003-06-30 07:02:36 51°16.27 2°54.15 42.55363 4.476775 32.403294 5.657247
2003-06-30 07:02:40 51°16.27 2°54.15 43.533471 4.469601 32.346862 5.690956
2003-06-30 07:02:44 51°16.27 2°54.15 42.614093 4.48321 32.455389 5.690956
2003-06-30 07:02:50 51°16.27 2°54.15 44.798306 4.462849 32.293313 5.690956
2003-06-30 07:02:54 51°16.27 2°54.15 44.798306 4.462849 32.293313 5.690956
2003-06-30 07:03:00 51°16.27 2°54.15 42.875764 4.481628 32.445837 5.657247
2003-06-30 07:03:04 51°16.27 2°54.15 45.213275 4.47899 32.422856 5.657247
2003-06-30 07:03:10 51°16.27 2°54.14 44.61238 4.482893 32.454457 5.657247
2003-06-30 07:03:14 51°16.27 2°54.14 46.891882 4.483104 32.456709 5.4887
2003-06-30 07:03:20 51°16.27 2°54.14 47.800583 4.483104 32.456165 5.556118
2003-06-30 07:03:24 51°16.27 2°54.14 47.800583 4.483104 32.456165 5.556118
2003-06-30 07:03:28 51°16.28 2°54.14 47.640891 4.475298 32.395137 5.556118
2003-06-30 07:03:34 51°16.28 2°54.14 47.732066 4.463377 32.29704 5.657247
2003-06-30 07:03:40 51°16.28 2°54.14 -999 4.47266 32.369453 5.623537
2003-06-30 07:03:44 51°16.28 2°54.14 49.933471 4.480784 32.437375 5.623537
2003-06-30 07:03:50 51°16.28 2°54.14 42.799785 4.462427 32.29044 5.589828
2003-06-30 07:03:54 51°16.28 2°54.14 42.799785 4.462427 32.29044 5.589828
2003-06-30 07:04:00 51°16.28 2°54.13 45.249687 4.47361 32.379305 5.589828
2003-06-30 07:04:04 51°16.28 2°54.13 43.500181 4.476986 32.407173 5.556118
2003-06-30 07:04:10 51°16.28 2°54.13 -999 4.478357 32.417732 5.623537
2003-06-30 07:04:14 51°16.28 2°54.13 -999 4.477513 32.409814 5.589828
2003-06-30 07:04:20 51°16.28 2°54.13 49.297942 4.479834 32.429688 5.522409
2003-06-30 07:04:24 51°16.28 2°54.13 49.297942 4.479834 32.429688 5.522409
2003-06-30 07:04:28 51°16.28 2°54.13 45.593284 4.460529 32.274536 5.556118
2003-06-30 07:04:34 51°16.28 2°54.13 47.776259 4.475192 32.391571 5.522409
2003-06-30 07:04:40 51°16.28 2°54.13 44.031386 4.469707 32.349341 5.522409
2003-06-30 07:04:50 51°16.28 2°54.13 45.823443 4.468019 32.332974 5.556118
2003-06-30 07:04:54 51°16.28 2°54.13 45.823443 4.468019 32.332974 5.556118
2003-06-30 07:05:00 51°16.28 2°54.13 46.473216 4.476564 32.403214 5.522409
2003-06-30 07:05:04 51°16.28 2°54.13 45.809245 4.47266 32.371079 5.556118
2003-06-30 07:05:10 51°16.28 2°54.13 46.376634 4.470339 32.350671 5.556118
2003-06-30 07:05:16 51°16.28 2°54.13 45.572887 4.475403 32.394364 5.4887
2003-06-30 07:05:20 51°16.28 2°54.13 45.808723 4.474243 32.385513 5.522409
2003-06-30 07:05:24 51°16.28 2°54.13 45.808723 4.474243 32.385513 5.522409
2003-06-30 07:05:30 51°16.28 2°54.13 45.138302 4.472027 32.366498 5.556118
2003-06-30 07:05:32 51°16.28 2°54.13 45.595899 4.468968 32.342281 5.556118
2003-06-30 07:05:40 51°16.28 2°54.13 44.562254 4.436687 32.082285 5.4887
2003-06-30 07:05:44 51°16.28 2°54.13 45.772057 4.465065 32.307992 5.556118
2003-06-30 07:05:50 51°16.28 2°54.12 44.628132 4.469496 32.349258 5.556118
2003-06-30 07:05:54 51°16.28 2°54.12 44.628132 4.469496 32.349258 5.556118
2003-06-30 07:06:00 51°16.28 2°54.12 45.807042 4.471711 32.365563 5.4887
2003-06-30 07:06:04 51°16.28 2°54.12 44.238822 4.46401 32.300538 5.4887
2003-06-30 07:06:10 51°16.28 2°54.12 44.175977 4.460001 32.269189 5.522409
2003-06-30 07:06:14 51°16.28 2°54.12 46.837126 4.470973 32.359586 5.421281
2003-06-30 07:06:20 51°16.28 2°54.12 45.749702 4.464221 32.305491 5.522409
2003-06-30 07:06:24 51°16.28 2°54.12 45.749702 4.464221 32.305491 5.522409
2003-06-30 07:06:30 51°16.28 2°54.12 44.62581 4.474137 32.386286 5.4887
2003-06-30 07:06:36 51°16.28 2°54.12 44.152221 4.470762 32.35842 5.45499
2003-06-30 07:06:40 51°16.28 2°54.12 46.13593 4.46517 32.312632 5.522409
2003-06-30 07:06:44 51°16.28 2°54.12 45.295268 4.46612 32.320315 5.45499
2003-06-30 07:06:50 51°16.28 2°54.12 45.318209 4.474559 32.390787 5.45499
2003-06-30 07:06:56 51°16.28 2°54.12 45.318209 4.474559 32.390787 5.45499
2003-06-30 07:07:00 51°16.28 2°54.12 44.752927 4.475825 32.399407 5.522409
2003-06-30 07:07:04 51°16.28 2°54.12 45.295647 4.476353 32.405305 5.522409
2003-06-30 07:07:10 51°16.28 2°54.12 44.511245 4.476142 32.40414 5.522409
2003-06-30 07:07:16 51°16.28 2°54.12 46.557136 4.473504 32.382247 5.4887
2003-06-30 07:07:20 51°16.28 2°54.12 44.454699 4.471606 32.37013 5.4887
2003-06-30 07:07:24 51°16.28 2°54.12 44.454699 4.471606 32.37013 5.4887
2003-06-30 07:07:30 51°16.28 2°54.12 46.079966 4.467069 32.331246 5.4887
2003-06-30 07:07:36 51°16.28 2°54.12 44.270876 4.469074 32.346385 5.421281
2003-06-30 07:07:40 51°16.28 2°54.12 44.438031 4.473399 32.380851 5.421281
2003-06-30 07:07:44 51°16.28 2°54.12 45.636561 4.458419 32.260169 5.45499
2003-06-30 07:07:50 51°16.28 2°54.12 45.594156 4.472028 32.370835 5.45499
2003-06-30 07:07:54 51°16.28 2°54.12 45.594156 4.472028 32.370835 5.45499
2003-06-30 07:08:00 51°16.28 2°54.12 45.436665 4.47034 32.356089 5.45499
2003-06-30 07:08:04 51°16.28 2°54.12 45.063261 4.470656 32.36136 5.421281
2003-06-30 07:08:10 51°16.28 2°54.12 44.270876 4.46612 32.323563 5.4887
2003-06-30 07:08:16 51°16.28 2°54.12 40.816768 4.464959 32.314713 5.4887
2003-06-30 07:08:20 51°16.28 2°54.12 20.598163 4.469601 32.351738 5.421281
2003-06-30 07:08:24 51°16.28 2°54.12 20.598163 4.469601 32.351738 5.421281
2003-06-30 07:08:30 51°16.28 2°54.12 20.661249 4.470129 32.358717 5.421281
2003-06-30 07:08:34 51°16.28 2°54.12 20.297804 4.468757 32.34599 5.45499
2003-06-30 07:08:40 51°16.28 2°54.12 20.954602 4.465487 32.321147 5.522409
2003-06-30 07:08:44 51°16.28 2°54.12 21.151104 4.46728 32.334579 5.724665
2003-06-30 07:08:50 51°16.28 2°54.12 20.562204 4.467491 32.334661 5.926922
2003-06-30 07:08:56 51°16.28 2°54.12 20.562204 4.467491 32.334661 5.926922
2003-06-30 07:09:00 51°16.28 2°54.12 20.890379 4.465909 32.321314 5.623537
2003-06-30 07:09:04 51°16.28 2°54.12 20.561722 4.466858 32.328997 5.623537
2003-06-30 07:09:10 51°16.28 2°54.12 20.72532 4.462533 32.296161 5.589828
2003-06-30 07:09:16 51°16.28 2°54.12 20.495092 4.461162 32.285063 5.623537
2003-06-30 07:09:20 51°16.28 2°54.12 20.757914 4.461162 32.286145 5.657247
2003-06-30 07:09:24 51°16.28 2°54.12 20.757914 4.461162 32.286145 5.657247
2003-06-30 07:09:30 51°16.28 2°54.12 20.461934 4.463483 32.306549 5.589828
2003-06-30 07:09:34 51°16.28 2°54.12 20.986931 4.4619 32.290498 5.623537
2003-06-30 07:09:40 51°16.28 2°54.12 20.494248 4.468335 32.3442 5.657247
2003-06-30 07:09:44 51°16.28 2°54.12 20.724599 4.458841 32.268447 5.589828
2003-06-30 07:09:50 51°16.28 2°54.12 20.69187 4.456414 32.247195 5.556118
2003-06-30 07:09:56 51°16.28 2°54.12 20.69187 4.456414 32.247195 5.556118
2003-06-30 07:10:00 51°16.28 2°54.12 20.428921 4.463905 32.308882 5.556118
2003-06-30 07:10:04 51°16.28 2°54.12 20.69195 4.466753 32.332476 5.556118
2003-06-30 07:10:10 51°16.28 2°54.12 20.657842 4.464432 32.313151 5.623537
2003-06-30 07:10:14 51°16.28 2°54.12 20.757154 4.46285 32.301968 5.556118
2003-06-30 07:10:20 51°16.28 2°54.12 20.822418 4.456625 32.249442 5.4887
2003-06-30 07:10:24 51°16.27 2°54.12 20.822418 4.456625 32.249442 5.4887
2003-06-30 07:10:30 51°16.27 2°54.12 20.559755 4.457047 32.250155 5.522409
2003-06-30 07:10:36 51°16.27 2°54.12 20.855247 4.456309 32.249042 5.589828
2003-06-30 07:10:40 51°16.27 2°54.12 20.72496 4.464748 32.313547 5.556118
2003-06-30 07:10:44 51°16.27 2°54.13 20.790454 4.466014 32.326499 5.45499
2003-06-30 07:10:50 51°16.27 2°54.13 20.888821 4.459579 32.274963 5.589828
2003-06-30 07:10:54 51°16.27 2°54.13 20.888821 4.459579 32.274963 5.589828
2003-06-30 07:11:00 51°16.27 2°54.14 20.462215 4.465381 32.320835 5.421281
2003-06-30 07:11:04 51°16.27 2°54.14 20.72504 4.468968 32.349324 5.556118
2003-06-30 07:11:10 51°16.27 2°54.15 20.626685 4.462955 32.301198 5.556118
2003-06-30 07:11:16 51°16.27 2°54.16 20.790614 4.466964 32.334725 5.589828
2003-06-30 07:11:20 51°16.26 2°54.16 20.790293 4.467069 32.333954 5.556118
2003-06-30 07:11:24 51°16.26 2°54.17 20.790293 4.467069 32.333954 5.556118
2003-06-30 07:11:30 51°16.25 2°54.17 20.758515 4.459052 32.267992 5.556118
2003-06-30 07:11:36 51°16.25 2°54.18 20.627287 4.460634 32.281336 5.657247
2003-06-30 07:11:40 51°16.24 2°54.18 20.890898 4.459579 32.273341 5.657247
2003-06-30 07:11:44 51°16.24 2°54.19 20.826897 4.467702 32.336911 5.724665
2003-06-30 07:11:50 51°16.23 2°54.19 20.630175 4.453039 32.221505 5.758375
2003-06-30 07:11:54 51°16.22 2°54.19 20.630175 4.453039 32.221505 5.758375
2003-06-30 07:12:00 51°16.22 2°54.2 20.696277 4.462217 32.294682 5.758375
2003-06-30 07:12:04 51°16.21 2°54.2 20.698 4.465065 32.318273 5.825794
2003-06-30 07:12:10 51°16.2 2°54.2 20.829097 4.457258 32.252942 5.825794
2003-06-30 07:12:16 51°16.19 2°54.2 20.500958 4.390062 31.711056 5.859503
2003-06-30 07:12:20 51°16.18 2°54.19 20.698801 4.452089 32.211127 5.825794
2003-06-30 07:12:24 51°16.17 2°54.19 20.698801 4.452089 32.211127 5.825794
2003-06-30 07:12:30 51°16.16 2°54.18 20.469371 4.467491 32.334661 5.859503
2003-06-30 07:12:34 51°16.15 2°54.17 20.66622 4.469918 32.352674 5.825794
2003-06-30 07:12:40 51°16.14 2°54.16 20.632982 4.470129 32.356007 5.825794
2003-06-30 07:12:44 51°16.13 2°54.15 20.76508 4.470762 32.360588 5.893212
2003-06-30 07:12:50 51°16.12 2°54.13 20.862883 4.470867 32.359274 5.859503
2003-06-30 07:12:56 51°16.11 2°54.11 20.862883 4.470867 32.359274 5.859503
2003-06-30 07:13:00 51°16.1 2°54.09 20.92753 4.470234 32.355777 6.02805
2003-06-30 07:13:04 51°16.1 2°54.08 20.796095 4.470023 32.352985 6.129178
2003-06-30 07:13:10 51°16.1 2°54.05 20.598966 4.471395 32.363543 6.162888
2003-06-30 07:13:14 51°16.09 2°54.03 20.695836 4.471816 32.367501 6.061759
2003-06-30 07:13:20 51°16.09 2°54.01 20.826257 4.47034 32.356631 6.162888
2003-06-30 07:13:24 51°16.09 2°53.99 20.826257 4.47034 32.356631 6.162888
2003-06-30 07:13:30 51°16.09 2°53.97 20.858845 4.473293 32.378913 6.162888
2003-06-30 07:13:36 51°16.1 2°53.94 20.429726 4.474981 32.392033 6.230306
2003-06-30 07:13:40 51°16.1 2°53.92 20.659125 4.475931 32.400804 6.162888
2003-06-30 07:13:44 51°16.11 2°53.91 20.460768 4.478041 32.419513 6.230306
2003-06-30 07:13:50 51°16.12 2°53.88 21.018089 4.479834 32.432947 6.297725
2003-06-30 07:13:56 51°16.13 2°53.86 21.018089 4.479834 32.432947 6.297725
2003-06-30 07:14:00 51°16.13 2°53.85 20.65716 4.480889 32.443119 6.331435
2003-06-30 07:14:04 51°16.14 2°53.83 20.689746 4.479729 32.435352 6.230306
2003-06-30 07:14:10 51°16.15 2°53.81 20.786892 4.481628 32.450185 6.196597
2003-06-30 07:14:14 51°16.16 2°53.8 20.852209 4.479518 32.43473 6.230306
2003-06-30 07:14:20 51°16.18 2°53.78 20.556343 4.481944 32.456554 6.196597
2003-06-30 07:14:24 51°16.18 2°53.77 20.556343 4.481944 32.456554 6.196597
2003-06-30 07:14:30 51°16.2 2°53.75 20.71739 4.484687 32.476592 6.095469
2003-06-30 07:14:36 51°16.21 2°53.73 20.549477 4.48532 32.481719 6.129178
2003-06-30 07:14:40 51°16.22 2°53.71 20.813938 4.484265 32.475351 6.129178
2003-06-30 07:14:44 51°16.23 2°53.7 20.715187 4.483949 32.472243 5.859503
2003-06-30 07:14:50 51°16.25 2°53.68 20.550601 4.48416 32.474496 5.926922
2003-06-30 07:14:54 51°16.26 2°53.67 20.550601 4.48416 32.474496 5.926922
2003-06-30 07:15:00 51°16.27 2°53.65 20.844732 4.482999 32.467273 5.792084
2003-06-30 07:15:04 51°16.28 2°53.63 21.007399 4.485848 32.493067 5.724665
2003-06-30 07:15:10 51°16.3 2°53.61 20.579785 4.485848 32.494156 5.724665
2003-06-30 07:15:16 51°16.31 2°53.59 20.643448 4.483632 32.475665 5.724665
2003-06-30 07:15:20 51°16.32 2°53.57 20.509315 4.48205 32.46339 5.724665
2003-06-30 07:15:24 51°16.33 2°53.56 20.509315 4.48205 32.46339 5.724665
2003-06-30 07:15:30 51°16.35 2°53.53 20.604422 4.480573 32.451427 5.690956
2003-06-30 07:15:34 51°16.36 2°53.52 20.864561 4.479729 32.444048 5.724665
2003-06-30 07:15:40 51°16.38 2°53.49 20.796575 4.479307 32.440086 5.657247
2003-06-30 07:15:44 51°16.39 2°53.48 20.432259 4.478357 32.43457 5.690956
2003-06-30 07:15:50 51°16.41 2°53.45 20.792054 4.477936 32.431696 5.657247
2003-06-30 07:15:54 51°16.42 2°53.44 20.792054 4.477936 32.431696 5.657247
2003-06-30 07:16:00 51°16.43 2°53.41 20.557386 4.476353 32.416707 5.690956
2003-06-30 07:16:04 51°16.45 2°53.39 20.881907 4.477408 32.431772 5.589828
2003-06-30 07:16:10 51°16.46 2°53.37 20.877791 4.476775 32.430449 5.589828
2003-06-30 07:16:16 51°16.48 2°53.35 20.808978 4.476353 32.428661 5.556118
2003-06-30 07:16:20 51°16.49 2°53.33 21.133306 4.477303 32.436353 5.657247
2003-06-30 07:16:24 51°16.5 2°53.31 21.133306 4.477303 32.436353 5.657247
2003-06-30 07:16:30 51°16.52 2°53.29 20.310576 4.475826 32.429281 5.657247
2003-06-30 07:16:34 51°16.53 2°53.27 20.669507 4.472767 32.406124 5.690956
2003-06-30 07:16:40 51°16.55 2°53.25 20.697159 4.475298 32.429357 5.623537
2003-06-30 07:16:44 51°16.56 2°53.23 20.758355 4.4734 32.4156 5.690956
2003-06-30 07:16:50 51°16.58 2°53.21 20.555339 4.472978 32.415442 5.690956
2003-06-30 07:16:56 51°16.6 2°53.18 20.555339 4.472978 32.415442 5.690956
2003-06-30 07:17:00 51°16.61 2°53.17 20.643729 4.472978 32.418161 5.724665
2003-06-30 07:17:04 51°16.62 2°53.15 20.235603 4.472872 32.41785 5.690956
2003-06-30 07:17:10 51°16.64 2°53.13 20.775887 4.470973 32.406809 5.690956
2003-06-30 07:17:14 51°16.65 2°53.11 20.688704 4.471079 32.410926 5.724665
2003-06-30 07:17:20 51°16.67 2°53.09 20.504855 4.470657 32.409681 5.758375
2003-06-30 07:17:24 51°16.68 2°53.08 20.504855 4.470657 32.409681 5.758375
2003-06-30 07:17:30 51°16.7 2°53.06 20.422124 4.471923 32.423752 5.792084
2003-06-30 07:17:36 51°16.72 2°53.03 20.631538 4.475194 32.457896 5.690956
2003-06-30 07:17:40 51°16.73 2°53.02 20.650385 4.482578 32.527085 5.690956
2003-06-30 07:17:44 51°16.74 2°53 20.609838 4.493656 32.630702 5.657247
2003-06-30 07:17:50 51°16.76 2°52.98 20.603339 4.505683 32.739965 5.45499
2003-06-30 07:17:54 51°16.77 2°52.97 20.603339 4.505683 32.739965 5.45499
2003-06-30 07:18:00 51°16.79 2°52.94 20.367962 4.513068 32.814902 5.45499
2003-06-30 07:18:04 51°16.8 2°52.93 20.88974 4.521087 32.894528 5.4887
2003-06-30 07:18:10 51°16.82 2°52.91 20.624439 4.532165 32.996951 5.522409
2003-06-30 07:18:14 51°16.83 2°52.89 20.5557 4.541554 33.083497 5.623537
2003-06-30 07:18:20 51°16.85 2°52.87 20.454295 4.543876 33.111905 5.522409
2003-06-30 07:18:24 51°16.86 2°52.86 20.454295 4.543876 33.111905 5.522409
2003-06-30 07:18:30 51°16.87 2°52.84 20.583798 4.549257 33.161943 5.589828
2003-06-30 07:18:36 51°16.89 2°52.82 20.450194 4.552633 33.196767 5.690956
2003-06-30 07:18:40 51°16.9 2°52.8 20.580989 4.55295 33.20551 5.724665
2003-06-30 07:18:44 51°16.91 2°52.79 20.807618 4.554849 33.222135 5.690956
2003-06-30 07:18:50 51°16.93 2°52.77 20.444485 4.555165 33.226961 5.690956
2003-06-30 07:18:54 51°16.94 2°52.75 20.444485 4.555165 33.226961 5.690956
2003-06-30 07:19:00 51°16.96 2°52.73 20.541165 4.555693 33.234072 5.758375
2003-06-30 07:19:04 51°16.97 2°52.72 20.57256 4.555482 33.234591 5.690956
2003-06-30 07:19:10 51°16.99 2°52.7 20.866 4.556748 33.247736 5.690956
2003-06-30 07:19:16 51°17 2°52.68 20.337966 4.557275 33.251484 5.724665
2003-06-30 07:19:20 51°17.02 2°52.66 20.696517 4.55812 33.260061 5.657247
2003-06-30 07:19:24 51°17.03 2°52.65 20.696517 4.55812 33.260061 5.657247
2003-06-30 07:19:30 51°17.04 2°52.62 20.531286 4.558014 33.263129 5.690956
2003-06-30 07:19:34 51°17.06 2°52.61 20.331885 4.557592 33.260804 5.657247
2003-06-30 07:19:40 51°17.07 2°52.59 20.46121 4.557381 33.261887 5.623537
2003-06-30 07:19:44 51°17.08 2°52.57 20.592105 4.557381 33.263571 5.690956
2003-06-30 07:19:50 51°17.1 2°52.55 20.557788 4.555693 33.248656 5.657247
2003-06-30 07:19:56 51°17.12 2°52.53 20.557788 4.555693 33.248656 5.657247
2003-06-30 07:20:00 51°17.13 2°52.51 20.49027 4.557803 33.267581 5.690956
2003-06-30 07:20:04 51°17.14 2°52.5 20.357777 4.557592 33.267542 5.690956
2003-06-30 07:20:10 51°17.16 2°52.48 20.487497 4.557803 33.272074 5.690956
2003-06-30 07:20:16 51°17.18 2°52.46 20.586005 4.556748 33.264576 5.657247
2003-06-30 07:20:20 51°17.19 2°52.44 20.585644 4.557592 33.273159 5.690956
2003-06-30 07:20:24 51°17.2 2°52.43 20.585644 4.557592 33.273159 5.690956
2003-06-30 07:20:30 51°17.22 2°52.4 20.420998 4.557276 33.271134 5.724665
2003-06-30 07:20:34 51°17.23 2°52.39 20.651748 4.556643 33.266522 5.859503
2003-06-30 07:20:40 51°17.24 2°52.36 20.523736 4.556959 33.267985 5.859503
2003-06-30 07:20:44 51°17.26 2°52.35 20.329952 4.557381 33.274805 5.926922
2003-06-30 07:20:50 51°17.27 2°52.33 20.267658 4.55812 33.281404 6.095469
2003-06-30 07:20:56 51°17.29 2°52.3 20.267658 4.55812 33.281404 6.095469
2003-06-30 07:21:00 51°17.3 2°52.29 20.237659 4.557698 33.278517 5.960631
2003-06-30 07:21:04 51°17.31 2°52.28 20.206357 4.557803 33.279941 6.230306
2003-06-30 07:21:10 51°17.33 2°52.25 20.406958 4.556748 33.270755 6.264016
2003-06-30 07:21:14 51°17.34 2°52.24 20.540563 4.557592 33.274844 6.432563
2003-06-30 07:21:20 51°17.36 2°52.22 20.378307 4.555377 33.255614 6.432563
2003-06-30 07:21:24 51°17.37 2°52.2 20.378307 4.555377 33.255614 6.432563
2003-06-30 07:21:30 51°17.39 2°52.18 20.413757 4.554744 33.249879 6.5674
2003-06-30 07:21:36 51°17.41 2°52.16 20.547028 4.553267 33.237248 6.702238
2003-06-30 07:21:40 51°17.42 2°52.14 20.383579 4.552211 33.22414 6.735947
2003-06-30 07:21:44 51°17.43 2°52.12 20.28503 4.551156 33.211035 6.803366
2003-06-30 07:21:50 51°17.45 2°52.1 20.385109 4.548202 33.188027 6.769657
2003-06-30 07:21:56 51°17.46 2°52.08 20.385109 4.548202 33.188027 6.769657
2003-06-30 07:22:00 51°17.48 2°52.06 20.844892 4.546831 33.172345 6.938204
2003-06-30 07:22:04 51°17.49 2°52.05 20.48388 4.544826 33.153179 6.904494
2003-06-30 07:22:10 51°17.5 2°52.03 20.353751 4.546092 33.157921 6.971913
2003-06-30 07:22:16 51°17.52 2°52.01 20.552769 4.539445 33.111486 7.241589
2003-06-30 07:22:20 51°17.53 2°51.99 20.719593 4.537968 33.09887 7.14046
2003-06-30 07:22:24 51°17.54 2°51.98 20.719593 4.537968 33.09887 7.14046
2003-06-30 07:22:30 51°17.56 2°51.95 20.493725 4.535647 33.078249 7.207879
2003-06-30 07:22:36 51°17.58 2°51.93 20.629693 4.535331 33.076224 7.443845
2003-06-30 07:22:40 51°17.59 2°51.92 20.437327 4.531321 33.042389 7.410136
2003-06-30 07:22:44 51°17.6 2°51.9 20.836175 4.528578 33.01722 7.477554
2003-06-30 07:22:50 51°17.62 2°51.88 20.513975 4.523198 32.974993 7.544973
2003-06-30 07:22:54 51°17.63 2°51.86 20.513975 4.523198 32.974993 7.544973
2003-06-30 07:23:00 51°17.65 2°51.84 20.687462 4.522776 32.967657 7.679811
2003-06-30 07:23:04 51°17.66 2°51.82 20.697679 4.521826 32.959357 7.612392
2003-06-30 07:23:10 51°17.68 2°51.8 20.708617 4.517395 32.917667 7.679811
2003-06-30 07:23:16 51°17.69 2°51.78 20.554215 4.514546 32.891115 7.612392
2003-06-30 07:23:20 51°17.7 2°51.77 20.497342 4.51117 32.859164 7.578683
2003-06-30 07:23:24 51°17.72 2°51.75 20.497342 4.51117 32.859164 7.578683
2003-06-30 07:23:30 51°17.73 2°51.73 20.504333 4.511698 32.859585 7.646101
2003-06-30 07:23:34 51°17.74 2°51.71 20.544619 4.509693 32.836056 7.612392
2003-06-30 07:23:40 51°17.76 2°51.69 20.715187 4.505157 32.793025 7.74723
2003-06-30 07:23:44 51°17.77 2°51.68 20.42502 4.50484 32.781059 7.74723
2003-06-30 07:23:50 51°17.79 2°51.65 20.528435 4.502202 32.755175 7.848358
2003-06-30 07:23:56 51°17.81 2°51.63 20.528435 4.502202 32.755175 7.848358
2003-06-30 07:24:00 51°17.82 2°51.62 20.499712 4.504418 32.765484 7.882067
2003-06-30 07:24:04 51°17.83 2°51.6 20.832016 4.502308 32.742802 7.780939
2003-06-30 07:24:10 51°17.85 2°51.58 20.736333 4.502202 32.735883 7.882067
2003-06-30 07:24:16 51°17.86 2°51.56 20.706253 4.499986 32.710708 7.882067
2003-06-30 07:24:20 51°17.88 2°51.54 20.38044 4.499037 32.701887 7.915777
2003-06-30 07:24:24 51°17.89 2°51.53 20.38044 4.499037 32.701887 7.915777
2003-06-30 07:24:30 51°17.9 2°51.51 20.712302 4.496399 32.676046 7.949486
2003-06-30 07:24:36 51°17.92 2°51.48 20.846332 4.496294 32.671342 7.915777
2003-06-30 07:24:40 51°17.93 2°51.47 20.289261 4.495977 32.669319 7.882067
2003-06-30 07:24:44 51°17.94 2°51.45 20.718551 4.495239 32.657276 7.915777
2003-06-30 07:24:50 51°17.96 2°51.43 21.01434 4.495555 32.657102 8.016905
2003-06-30 07:24:56 51°17.98 2°51.41 21.01434 4.495555 32.657102 8.016905
2003-06-30 07:25:00 51°17.99 2°51.39 20.489345 4.495871 32.655283 7.983195
2003-06-30 07:25:04 51°18 2°51.38 20.586848 4.496399 32.660666 8.050614
2003-06-30 07:25:10 51°18.02 2°51.35 20.551364 4.493761 32.637043 8.151742
2003-06-30 07:25:16 51°18.04 2°51.33 20.438412 4.495133 32.642699 8.185452
2003-06-30 07:25:20 51°18.05 2°51.31 20.594031 4.494394 32.639991 8.151742
2003-06-30 07:25:24 51°18.06 2°51.3 20.594031 4.494394 32.639991 8.151742
2003-06-30 07:25:30 51°18.08 2°51.27 20.551685 4.492495 32.621825 8.252871
2003-06-30 07:25:36 51°18.1 2°51.25 20.40905 4.491968 32.614252 8.421418
2003-06-30 07:25:40 51°18.11 2°51.24 20.434069 4.493656 32.633992 8.219161
2003-06-30 07:25:44 51°18.12 2°51.22 20.491596 4.495027 32.647328 8.084324
2003-06-30 07:25:50 51°18.13 2°51.2 20.516064 4.495872 32.659125 8.118033
2003-06-30 07:25:54 51°18.14 2°51.18 20.516064 4.495872 32.659125 8.118033
2003-06-30 07:26:00 51°18.16 2°51.16 20.446013 4.498509 32.684953 7.848358
2003-06-30 07:26:04 51°18.17 2°51.15 20.736974 4.496083 32.670726 7.74723
2003-06-30 07:26:10 51°18.18 2°51.13 20.538274 4.497243 32.688954 7.578683
2003-06-30 07:26:16 51°18.2 2°51.11 20.567984 4.498615 32.707809 7.477554
2003-06-30 07:26:20 51°18.21 2°51.1 20.201394 4.498088 32.706821 7.376426
2003-06-30 07:26:24 51°18.22 2°51.08 20.201394 4.498088 32.706821 7.376426
2003-06-30 07:26:30 51°18.23 2°51.06 20.301592 4.497982 32.71312 7.342717
2003-06-30 07:26:36 51°18.25 2°51.04 20.399434 4.498193 32.720345 7.309007
2003-06-30 07:26:40 51°18.26 2°51.03 20.330113 4.497349 32.718436 7.241589
2003-06-30 07:26:44 51°18.26 2°51.01 20.424095 4.497244 32.716475 7.207879
2003-06-30 07:26:50 51°18.28 2°50.99 20.388087 4.497138 32.716168 7.14046
2003-06-30 07:26:56 51°18.29 2°50.97 20.388087 4.497138 32.716168 7.14046
2003-06-30 07:27:00 51°18.3 2°50.96 20.484202 4.495873 32.711374 7.275298
2003-06-30 07:27:04 51°18.31 2°50.95 20.152635 4.494079 32.699531 7.039332
2003-06-30 07:27:10 51°18.33 2°50.93 20.217532 4.493868 32.699466 7.241589
2003-06-30 07:27:16 51°18.34 2°50.91 20.448224 4.491864 32.684803 7.005623
2003-06-30 07:27:20 51°18.35 2°50.9 20.47962 4.493235 32.69817 7.073042
2003-06-30 07:27:24 51°18.36 2°50.89 20.47962 4.493235 32.69817 7.073042
2003-06-30 07:27:30 51°18.37 2°50.87 20.146336 4.492919 32.697797 6.938204
2003-06-30 07:27:34 51°18.38 2°50.86 20.243265 4.489015 32.669876 6.971913
2003-06-30 07:27:40 51°18.4 2°50.85 20.339013 4.487327 32.655586 6.837076
2003-06-30 07:27:44 51°18.4 2°50.85 20.601413 4.489965 32.679258 6.837076
2003-06-30 07:27:50 51°18.41 2°50.84 20.402492 4.490492 32.684654 6.803366
2003-06-30 07:27:56 51°18.43 2°50.83 20.402492 4.490492 32.684654 6.803366
2003-06-30 07:28:00 51°18.43 2°50.83 20.371746 4.489015 32.67318 6.769657
2003-06-30 07:28:04 51°18.44 2°50.82 20.570112 4.487011 32.660164 6.735947
2003-06-30 07:28:10 51°18.45 2°50.82 20.437126 4.484901 32.640786 6.702238
2003-06-30 07:28:14 51°18.45 2°50.82 20.598886 4.4868 32.659547 6.702238
2003-06-30 07:28:20 51°18.46 2°50.82 20.431174 4.483952 32.636907 6.533691
2003-06-30 07:28:24 51°18.47 2°50.81 20.431174 4.483952 32.636907 6.533691
2003-06-30 07:28:30 51°18.47 2°50.81 20.493806 4.48258 32.627392 6.5674
2003-06-30 07:28:36 51°18.48 2°50.81 20.423049 4.480892 32.614751 6.60111
2003-06-30 07:28:40 51°18.48 2°50.81 20.68105 4.478255 32.592732 6.398853
2003-06-30 07:28:44 51°18.49 2°50.81 20.282128 4.478255 32.592732 6.533691
2003-06-30 07:28:50 51°18.49 2°50.81 20.473832 4.474035 32.560032 6.432563
2003-06-30 07:28:56 51°18.5 2°50.81 20.473832 4.474035 32.560032 6.432563
2003-06-30 07:29:00 51°18.5 2°50.82 20.204138 4.474985 32.569407 6.60111
2003-06-30 07:29:04 51°18.51 2°50.82 20.298932 4.473613 32.562087 6.533691
2003-06-30 07:29:10 51°18.51 2°50.82 20.128647 4.472242 32.555315 6.60111
2003-06-30 07:29:16 51°18.52 2°50.82 20.222776 4.471187 32.548922 6.5674
2003-06-30 07:29:20 51°18.52 2°50.82 20.417015 4.47182 32.55737 6.60111
2003-06-30 07:29:24 51°18.52 2°50.82 20.417015 4.47182 32.55737 6.60111
2003-06-30 07:29:30 51°18.52 2°50.82 20.214547 4.471187 32.556609 6.499982
2003-06-30 07:29:36 51°18.53 2°50.83 20.209988 4.471926 32.568667 6.5674
2003-06-30 07:29:40 51°18.53 2°50.83 20.372149 4.469288 32.547186 6.499982
2003-06-30 07:29:44 51°18.53 2°50.83 20.403337 4.472875 32.578049 6.499982
2003-06-30 07:29:50 51°18.54 2°50.83 20.36921 4.470238 32.56646 6.533691
2003-06-30 07:29:54 51°18.54 2°50.83 20.36921 4.470238 32.56646 6.533691
2003-06-30 07:30:00 51°18.54 2°50.84 20.467039 4.471609 32.577084 6.634819
2003-06-30 07:30:04 51°18.54 2°50.84 20.071187 4.467601 32.551567 6.60111
2003-06-30 07:30:10 51°18.54 2°50.84 20.533254 4.467706 32.552976 6.60111
2003-06-30 07:30:16 51°18.55 2°50.84 20.401044 4.471926 32.589015 6.5674
2003-06-30 07:30:20 51°18.55 2°50.85 20.268585 4.472243 32.591594 6.735947
2003-06-30 07:30:24 51°18.55 2°50.85 20.268585 4.472243 32.591594 6.735947
2003-06-30 07:30:30 51°18.55 2°50.85 20.466356 4.472876 32.599506 6.5674
2003-06-30 07:30:34 51°18.55 2°50.85 20.465873 4.470238 32.58021 6.533691
2003-06-30 07:30:40 51°18.55 2°50.86 20.26927 4.470133 32.5799 6.533691
2003-06-30 07:30:44 51°18.55 2°50.86 20.400279 4.469394 32.573331 6.5674
2003-06-30 07:30:50 51°18.55 2°50.86 20.432702 4.465175 32.53894 6.60111
2003-06-30 07:30:56 51°18.56 2°50.87 20.432702 4.465175 32.53894 6.60111
2003-06-30 07:31:00 51°18.56 2°50.87 20.399877 4.467917 32.562393 6.634819
2003-06-30 07:31:04 51°18.56 2°50.87 20.200749 4.467495 32.558404 6.60111
2003-06-30 07:31:10 51°18.56 2°50.88 20.562886 4.465808 32.549046 6.533691
2003-06-30 07:31:16 51°18.56 2°50.88 20.398388 4.466019 32.547467 6.533691
2003-06-30 07:31:20 51°18.55 2°50.88 20.431495 4.466757 32.551836 6.634819
2003-06-30 07:31:24 51°18.55 2°50.88 20.431495 4.466757 32.551836 6.634819
2003-06-30 07:31:30 51°18.55 2°50.89 20.465552 4.464647 32.539587 6.668529
2003-06-30 07:31:36 51°18.55 2°50.89 20.499391 4.462537 32.52349 6.466272
2003-06-30 07:31:40 51°18.55 2°50.89 20.368405 4.465597 32.544027 6.466272
2003-06-30 07:31:44 51°18.55 2°50.89 20.665819 4.465386 32.542858 6.5674
2003-06-30 07:31:50 51°18.55 2°50.89 20.601774 4.46412 32.529244 6.533691
2003-06-30 07:31:56 51°18.55 2°50.89 20.601774 4.46412 32.529244 6.533691
2003-06-30 07:32:00 51°18.55 2°50.89 20.173871 4.464964 32.536671 6.5674
2003-06-30 07:32:04 51°18.55 2°50.9 20.20672 4.463487 32.528481 6.5674
2003-06-30 07:32:10 51°18.55 2°50.9 20.206196 4.463276 32.526212 6.466272
2003-06-30 07:32:14 51°18.55 2°50.9 20.107842 4.460849 32.507537 6.499982
2003-06-30 07:32:20 51°18.54 2°50.9 20.437729 4.463276 32.525113 6.466272
2003-06-30 07:32:24 51°18.54 2°50.9 20.437729 4.463276 32.525113 6.466272
2003-06-30 07:32:30 51°18.54 2°50.9 20.239998 4.461377 32.513483 6.466272
2003-06-30 07:32:36 51°18.54 2°50.9 20.075189 4.463803 32.530511 6.365144
2003-06-30 07:32:40 51°18.54 2°50.9 20.20781 4.462326 32.514081 6.398853
2003-06-30 07:32:44 51°18.54 2°50.9 20.208334 4.465913 32.544408 6.365144
2003-06-30 07:32:50 51°18.53 2°50.9 20.209545 4.465597 32.54073 6.432563
2003-06-30 07:32:54 51°18.53 2°50.9 20.209545 4.465597 32.54073 6.432563
2003-06-30 07:33:00 51°18.53 2°50.9 20.077776 4.461904 32.513388 6.264016
2003-06-30 07:33:04 51°18.53 2°50.9 20.277332 4.46201 32.512052 6.331435
2003-06-30 07:33:10 51°18.53 2°50.9 20.212288 4.464647 32.532993 6.331435
2003-06-30 07:33:16 51°18.53 2°50.89 20.410418 4.463698 32.526355 6.297725
2003-06-30 07:33:20 51°18.52 2°50.89 20.477048 4.46317 32.518761 6.264016
2003-06-30 07:33:24 51°18.52 2°50.89 20.477048 4.46317 32.518761 6.264016
2003-06-30 07:33:30 51°18.52 2°50.89 20.411544 4.462854 32.518379 6.061759
2003-06-30 07:33:36 51°18.52 2°50.89 20.477811 4.463909 32.526975 6.095469
2003-06-30 07:33:40 51°18.52 2°50.89 20.247499 4.461799 32.509234 5.994341
2003-06-30 07:33:44 51°18.51 2°50.89 20.31392 4.462221 32.511574 6.02805
2003-06-30 07:33:50 51°18.51 2°50.89 20.642526 4.460533 32.49453 6.061759
2003-06-30 07:33:54 51°18.51 2°50.89 20.642526 4.460533 32.49453 6.061759
2003-06-30 07:34:00 51°18.51 2°50.89 20.312953 4.462537 32.511957 5.994341
2003-06-30 07:34:04 51°18.51 2°50.89 20.444967 4.46201 32.508757 6.02805
2003-06-30 07:34:10 51°18.5 2°50.89 20.279911 4.462221 32.508281 6.129178
2003-06-30 07:34:16 51°18.5 2°50.89 20.214789 4.463909 32.525877 5.893212
2003-06-30 07:34:20 51°18.5 2°50.89 20.280879 4.463698 32.519764 6.02805
2003-06-30 07:34:24 51°18.5 2°50.89 20.280879 4.463698 32.519764 6.02805
2003-06-30 07:34:30 51°18.49 2°50.88 20.446575 4.46201 32.507111 6.02805
2003-06-30 07:34:34 51°18.49 2°50.88 20.313235 4.464964 32.534473 6.061759
2003-06-30 07:34:40 51°18.49 2°50.88 20.412067 4.463908 32.520385 6.162888
2003-06-30 07:34:44 51°18.49 2°50.88 20.608514 4.466862 32.547199 6.196597
2003-06-30 07:34:50 51°18.49 2°50.88 20.21366 4.464014 32.524539 6.129178
2003-06-30 07:34:56 51°18.48 2°50.88 20.21366 4.464014 32.524539 6.129178
2003-06-30 07:35:00 51°18.48 2°50.88 20.346544 4.46201 32.507111 6.095469
2003-06-30 07:35:04 51°18.48 2°50.88 20.215031 4.462115 32.511264 6.061759
2003-06-30 07:35:10 51°18.48 2°50.87 20.248426 4.462432 32.510549 6.230306
2003-06-30 07:35:16 51°18.47 2°50.87 20.247257 4.463065 32.516254 6.196597
2003-06-30 07:35:20 51°18.47 2°50.87 20.312712 4.46201 32.512052 6.331435
2003-06-30 07:35:24 51°18.47 2°50.87 20.312712 4.46201 32.512052 6.331435
2003-06-30 07:35:30 51°18.47 2°50.87 20.313396 4.463487 32.518594 6.196597
2003-06-30 07:35:36 51°18.46 2°50.86 20.280838 4.46201 32.503818 6.331435
2003-06-30 07:35:40 51°18.46 2°50.86 20.280919 4.462537 32.513055 6.264016
2003-06-30 07:35:44 51°18.46 2°50.86 20.510801 4.467601 32.552117 6.432563
2003-06-30 07:35:50 51°18.46 2°50.86 20.6758 4.463909 32.522581 6.095469
2003-06-30 07:35:56 51°18.46 2°50.86 20.6758 4.463909 32.522581 6.095469
2003-06-30 07:36:00 51°18.45 2°50.86 20.544619 4.464647 32.527499 6.230306
2003-06-30 07:36:04 51°18.45 2°50.85 20.609598 4.465491 32.534376 6.365144
2003-06-30 07:36:10 51°18.45 2°50.85 20.279992 4.464225 32.523512 6.095469
2003-06-30 07:36:14 51°18.45 2°50.85 20.47745 4.464119 32.523751 6.331435
2003-06-30 07:36:20 51°18.44 2°50.85 20.345376 4.464436 32.522486 6.297725
2003-06-30 07:36:24 51°18.44 2°50.85 20.345376 4.464436 32.522486 6.297725
2003-06-30 07:36:30 51°18.44 2°50.85 20.378508 4.464752 32.529457 6.196597
2003-06-30 07:36:36 51°18.44 2°50.85 20.478053 4.463803 32.521173 6.230306
2003-06-30 07:36:40 51°18.44 2°50.85 20.609196 4.464963 32.52898 6.365144
2003-06-30 07:36:44 51°18.43 2°50.84 20.146175 4.464752 32.530007 6.365144
2003-06-30 07:36:50 51°18.43 2°50.84 20.045877 4.464014 32.524539 6.365144
2003-06-30 07:36:56 51°18.43 2°50.84 20.045877 4.464014 32.524539 6.365144
2003-06-30 07:37:00 51°18.43 2°50.84 20.540121 4.464647 32.531894 6.331435
2003-06-30 07:37:04 51°18.42 2°50.84 20.637433 4.465807 32.54135 6.432563
2003-06-30 07:37:10 51°18.42 2°50.84 20.308683 4.466862 32.54555 6.331435
2003-06-30 07:37:16 51°18.42 2°50.84 20.374886 4.466018 32.540322 6.230306
2003-06-30 07:37:20 51°18.42 2°50.84 20.27705 4.467706 32.552976 6.297725
2003-06-30 07:37:24 51°18.41 2°50.84 20.27705 4.467706 32.552976 6.297725
2003-06-30 07:37:30 51°18.41 2°50.84 20.443439 4.467601 32.557064 6.264016
2003-06-30 07:37:36 51°18.41 2°50.84 20.244233 4.467812 32.555485 6.129178
2003-06-30 07:37:40 51°18.4 2°50.84 20.146255 4.467601 32.555965 6.230306
2003-06-30 07:37:44 51°18.4 2°50.84 20.115599 4.467284 32.554485 6.365144
2003-06-30 07:37:50 51°18.4 2°50.85 20.479178 4.46855 32.563152 6.230306
2003-06-30 07:37:56 51°18.4 2°50.85 20.479178 4.46855 32.563152 6.230306
2003-06-30 07:38:00 51°18.39 2°50.86 20.249273 4.469183 32.567761 6.162888
2003-06-30 07:38:04 51°18.39 2°50.86 20.514376 4.471082 32.580486 6.230306
2003-06-30 07:38:10 51°18.39 2°50.87 20.285876 4.468656 32.561813 6.398853
2003-06-30 07:38:16 51°18.39 2°50.88 20.222373 4.469711 32.57151 6.230306
2003-06-30 07:38:20 51°18.39 2°50.88 20.390783 4.470871 32.572167 6.230306
2003-06-30 07:38:24 51°18.39 2°50.89 20.390783 4.470871 32.572167 6.230306
2003-06-30 07:38:30 51°18.39 2°50.9 20.262538 4.470027 32.571889 6.162888
2003-06-30 07:38:34 51°18.39 2°50.9 20.499994 4.469289 32.565871 6.297725
2003-06-30 07:38:40 51°18.39 2°50.92 20.240563 4.469078 32.562502 6.398853
2003-06-30 07:38:44 51°18.39 2°50.92 20.442353 4.469078 32.561952 6.162888
2003-06-30 07:38:50 51°18.4 2°50.94 20.346101 4.469078 32.557555 6.398853
2003-06-30 07:38:56 51°18.4 2°50.96 20.346101 4.469078 32.557555 6.398853
2003-06-30 07:39:00 51°18.4 2°50.97 20.447299 4.467284 32.543493 6.432563
2003-06-30 07:39:04 51°18.4 2°50.98 20.417418 4.466546 32.533633 6.365144
2003-06-30 07:39:10 51°18.41 2°51 20.551244 4.466651 32.5301 6.297725
2003-06-30 07:39:16 51°18.42 2°51.02 20.422647 4.465596 32.518764 6.398853
2003-06-30 07:39:20 51°18.42 2°51.03 20.623597 4.46549 32.51187 6.297725
2003-06-30 07:39:24 51°18.42 2°51.05 20.623597 4.46549 32.51187 6.297725
2003-06-30 07:39:30 51°18.43 2°51.07 20.331321 4.464752 32.506406 6.365144
2003-06-30 07:39:36 51°18.44 2°51.09 20.400883 4.46549 32.508031 6.264016
2003-06-30 07:39:40 51°18.44 2°51.1 20.897691 4.46549 32.507483 6.264016
2003-06-30 07:39:44 51°18.44 2°51.12 20.372954 4.464646 32.49842 6.162888
2003-06-30 07:39:50 51°18.45 2°51.14 20.473832 4.46549 32.502549 6.264016
2003-06-30 07:39:56 51°18.46 2°51.16 20.473832 4.46549 32.502549 6.264016
2003-06-30 07:40:00 51°18.46 2°51.18 20.34441 4.464646 32.492939 6.129178
2003-06-30 07:40:04 51°18.47 2°51.19 20.446535 4.463275 32.480135 6.196597
2003-06-30 07:40:10 51°18.47 2°51.22 20.450516 4.464541 32.486055 6.230306
2003-06-30 07:40:16 51°18.48 2°51.25 20.553572 4.465279 32.486039 6.162888
2003-06-30 07:40:20 51°18.49 2°51.26 20.261732 4.463591 32.476687 6.264016
2003-06-30 07:40:24 51°18.49 2°51.28 20.261732 4.463591 32.476687 6.264016
2003-06-30 07:40:30 51°18.5 2°51.31 20.463059 4.464224 32.478004 6.196597
2003-06-30 07:40:36 51°18.51 2°51.34 20.631217 4.463591 32.468477 5.994341
2003-06-30 07:40:40 51°18.51 2°51.36 20.602978 4.463486 32.467072 6.129178
2003-06-30 07:40:44 51°18.52 2°51.37 20.475601 4.462325 32.457086 6.129178
2003-06-30 07:40:50 51°18.53 2°51.4 20.511645 4.462642 32.456378 6.129178
2003-06-30 07:40:54 51°18.53 2°51.42 20.511645 4.462642 32.456378 6.129178
2003-06-30 07:41:00 51°18.54 2°51.45 20.41971 4.461481 32.444208 6.095469
2003-06-30 07:41:04 51°18.55 2°51.47 19.99442 4.462958 32.452937 6.061759
2003-06-30 07:41:10 51°18.56 2°51.5 20.756313 4.462114 32.444982 6.129178
2003-06-30 07:41:16 51°18.57 2°51.53 20.368526 4.463063 32.447236 6.061759
2003-06-30 07:41:20 51°18.57 2°51.55 20.670709 4.46338 32.445984 6.02805
2003-06-30 07:41:24 51°18.58 2°51.57 20.670709 4.46338 32.445984 6.02805
2003-06-30 07:41:30 51°18.59 2°51.6 20.380199 4.462536 32.437485 5.960631
2003-06-30 07:41:36 51°18.59 2°51.63 20.385068 4.462008 32.426099 6.02805
2003-06-30 07:41:40 51°18.6 2°51.65 20.22443 4.462747 32.431009 6.230306
2003-06-30 07:41:44 51°18.61 2°51.67 20.460004 4.460848 32.41285 6.196597
2003-06-30 07:41:50 51°18.61 2°51.7 20.497422 4.460742 32.410357 6.02805
2003-06-30 07:41:56 51°18.62 2°51.73 20.497422 4.460742 32.410357 6.02805
2003-06-30 07:42:00 51°18.63 2°51.75 20.567663 4.461269 32.407552 6.230306
2003-06-30 07:42:04 51°18.63 2°51.77 20.27443 4.461375 32.400776 6.095469
2003-06-30 07:42:10 51°18.64 2°51.8 20.737935 4.460953 32.395715 6.061759
2003-06-30 07:42:16 51°18.65 2°51.83 20.213579 4.460742 32.389099 6.095469
2003-06-30 07:42:20 51°18.65 2°51.85 20.446093 4.460636 32.386064 5.926922
2003-06-30 07:42:24 51°18.66 2°51.87 20.446093 4.460636 32.386064 5.926922
2003-06-30 07:42:30 51°18.66 2°51.9 20.382935 4.459159 32.370808 5.960631
2003-06-30 07:42:36 51°18.67 2°51.93 20.254273 4.460214 32.375017 6.02805
2003-06-30 07:42:40 51°18.68 2°51.95 20.455743 4.459687 32.369647 5.994341
2003-06-30 07:42:44 51°18.68 2°51.97 20.591663 4.459897 32.367007 6.061759
2003-06-30 07:42:50 51°18.69 2°52 20.596478 4.460003 32.367863 5.893212
2003-06-30 07:42:56 51°18.7 2°52.03 20.596478 4.460003 32.367863 5.893212
2003-06-30 07:43:00 51°18.7 2°52.05 20.601815 4.458315 32.351992 5.893212
2003-06-30 07:43:04 51°18.71 2°52.07 20.442836 4.460108 32.36328 5.994341
2003-06-30 07:43:10 51°18.72 2°52.1 20.512689 4.459053 32.352003 5.859503
2003-06-30 07:43:14 51°18.72 2°52.12 20.384545 4.458948 32.349516 5.825794
2003-06-30 07:43:20 51°18.73 2°52.15 20.45514 4.458631 32.345319 5.792084
2003-06-30 07:43:24 51°18.74 2°52.17 20.45514 4.458631 32.345319 5.792084
2003-06-30 07:43:30 51°18.74 2°52.2 20.855007 4.459581 32.348673 5.825794
2003-06-30 07:43:36 51°18.75 2°52.23 20.465632 4.457049 32.32271 5.893212
2003-06-30 07:43:40 51°18.76 2°52.25 20.470456 4.458631 32.329569 5.859503
2003-06-30 07:43:44 51°18.76 2°52.27 20.638155 4.459264 32.332529 5.792084
2003-06-30 07:43:50 51°18.77 2°52.3 20.673836 4.457471 32.315821 5.859503
2003-06-30 07:43:56 51°18.78 2°52.33 20.673836 4.457471 32.315821 5.859503
2003-06-30 07:44:00 51°18.78 2°52.35 20.182871 4.458103 32.316612 5.792084
2003-06-30 07:44:04 51°18.79 2°52.37 20.515742 4.455994 32.300596 5.792084
2003-06-30 07:44:10 51°18.8 2°52.4 20.517871 4.456732 32.301159 5.825794
2003-06-30 07:44:16 51°18.81 2°52.43 20.256087 4.458209 32.308248 5.859503
2003-06-30 07:44:20 51°18.81 2°52.45 20.290591 4.456626 32.291093 5.825794
2003-06-30 07:44:24 51°18.82 2°52.47 20.290591 4.456626 32.291093 5.825794
2003-06-30 07:44:30 51°18.82 2°52.5 20.655236 4.456837 32.29226 5.893212
2003-06-30 07:44:36 51°18.83 2°52.53 20.360354 4.456943 32.290407 5.792084
2003-06-30 07:44:40 51°18.84 2°52.55 20.855407 4.456732 32.28599 5.758375
2003-06-30 07:44:44 51°18.84 2°52.57 20.693272 4.456521 32.27995 5.758375
2003-06-30 07:44:50 51°18.85 2°52.6 20.332167 4.456204 32.275763 5.758375
2003-06-30 07:44:56 51°18.86 2°52.63 20.332167 4.456204 32.275763 5.758375
2003-06-30 07:45:00 51°18.86 2°52.65 20.531648 4.455571 32.268473 5.758375
2003-06-30 07:45:04 51°18.87 2°52.67 20.434391 4.456309 32.275535 5.724665
2003-06-30 07:45:10 51°18.88 2°52.7 20.567141 4.45536 32.266224 5.792084
2003-06-30 07:45:16 51°18.89 2°52.73 20.270399 4.455255 32.263747 5.690956
2003-06-30 07:45:20 51°18.89 2°52.75 20.633142 4.453567 32.247919 5.758375
2003-06-30 07:45:24 51°18.9 2°52.77 20.633142 4.453567 32.247919 5.758375
2003-06-30 07:45:30 51°18.9 2°52.8 20.43612 4.454621 32.254296 5.758375
2003-06-30 07:45:34 51°18.91 2°52.82 20.567743 4.455782 32.260987 5.758375
2003-06-30 07:45:40 51°18.92 2°52.85 20.502404 4.451984 32.233488 5.724665
2003-06-30 07:45:44 51°18.92 2°52.87 20.404383 4.452301 32.23605 5.724665
2003-06-30 07:45:50 51°18.93 2°52.9 20.437407 4.451562 32.231153 5.690956
2003-06-30 07:45:56 51°18.94 2°52.93 20.437407 4.451562 32.231153 5.690956
2003-06-30 07:46:00 51°18.94 2°52.95 20.205833 4.451562 32.228452 5.690956
2003-06-30 07:46:04 51°18.95 2°52.97 20.469129 4.451562 32.226831 5.758375
2003-06-30 07:46:10 51°18.96 2°53 20.336718 4.450402 32.21582 5.792084
2003-06-30 07:46:16 51°18.97 2°53.03 20.534178 4.448608 32.201307 5.758375
2003-06-30 07:46:20 51°18.97 2°53.05 20.400842 4.448608 32.203466 5.724665
2003-06-30 07:46:24 51°18.98 2°53.07 20.400842 4.448608 32.203466 5.724665
2003-06-30 07:46:30 51°18.99 2°53.1 20.696558 4.448503 32.200993 5.690956
2003-06-30 07:46:36 51°18.99 2°53.13 20.662091 4.449136 32.207194 5.690956
2003-06-30 07:46:40 51°19 2°53.15 20.596679 4.447553 32.195468 5.690956
2003-06-30 07:46:44 51°19 2°53.17 20.661249 4.44903 32.206341 5.724665
2003-06-30 07:46:50 51°19.01 2°53.2 20.364661 4.446393 32.187156 5.690956
2003-06-30 07:46:56 51°19.02 2°53.23 20.364661 4.446393 32.187156 5.690956
2003-06-30 07:47:00 51°19.03 2°53.25 20.530202 4.44787 32.19749 5.690956
2003-06-30 07:47:04 51°19.03 2°53.27 20.330798 4.445022 32.176598 5.657247
2003-06-30 07:47:10 51°19.04 2°53.3 20.198287 4.4446 32.173183 5.724665
2003-06-30 07:47:14 51°19.04 2°53.32 20.27971 4.443123 32.159076 5.690956
2003-06-30 07:47:20 51°19.05 2°53.35 20.428881 4.442912 32.159525 5.724665
2003-06-30 07:47:24 51°19.06 2°53.37 20.428881 4.442912 32.159525 5.724665
2003-06-30 07:47:30 51°19.06 2°53.4 20.296233 4.440697 32.142678 5.758375
2003-06-30 07:47:36 51°19.07 2°53.43 20.626365 4.44038 32.137962 5.724665
2003-06-30 07:47:40 51°19.08 2°53.45 20.724359 4.440169 32.137871 5.792084
2003-06-30 07:47:44 51°19.08 2°53.47 20.527391 4.438692 32.125922 5.758375
2003-06-30 07:47:50 51°19.09 2°53.5 20.459401 4.436688 32.110783 5.724665
2003-06-30 07:47:54 51°19.1 2°53.52 20.459401 4.436688 32.110783 5.724665
2003-06-30 07:48:00 51°19.11 2°53.55 20.556423 4.437004 32.113344 5.859503
2003-06-30 07:48:04 51°19.11 2°53.57 20.523655 4.436899 32.11249 5.825794
2003-06-30 07:48:10 51°19.12 2°53.6 20.259313 4.434789 32.09596 5.792084
2003-06-30 07:48:16 51°19.13 2°53.63 20.621993 4.434684 32.095106 5.724665
2003-06-30 07:48:20 51°19.13 2°53.66 20.622073 4.434578 32.093715 5.792084
2003-06-30 07:48:24 51°19.14 2°53.68 20.622073 4.434578 32.093715 5.792084
2003-06-30 07:48:30 51°19.15 2°53.71 20.490752 4.434051 32.089448 5.792084
2003-06-30 07:48:36 51°19.15 2°53.74 20.391588 4.433734 32.086888 5.758375
2003-06-30 07:48:40 51°19.16 2°53.76 20.524057 4.432363 32.077946 5.792084
2003-06-30 07:48:44 51°19.16 2°53.78 20.522892 4.431941 32.074532 5.825794
2003-06-30 07:48:50 51°19.17 2°53.81 20.489305 4.430675 32.066443 5.893212
2003-06-30 07:48:56 51°19.18 2°53.84 20.489305 4.430675 32.066443 5.893212
2003-06-30 07:49:00 51°19.19 2°53.86 20.487939 4.43173 32.073901 5.792084
2003-06-30 07:49:04 51°19.19 2°53.88 20.453009 4.431519 32.071657 5.792084
2003-06-30 07:49:10 51°19.2 2°53.91 20.55016 4.429726 32.056613 5.825794
2003-06-30 07:49:16 51°19.21 2°53.94 20.615214 4.430359 32.061733 5.758375
2003-06-30 07:49:20 51°19.21 2°53.96 20.483277 4.429198 32.052884 5.792084
2003-06-30 07:49:24 51°19.22 2°53.98 20.483277 4.429198 32.052884 5.792084
2003-06-30 07:49:30 51°19.23 2°54.01 20.679407 4.428354 32.048744 5.724665
2003-06-30 07:49:36 51°19.23 2°54.04 20.349121 4.428354 32.047132 5.657247
2003-06-30 07:49:40 51°19.24 2°54.06 20.413676 4.428671 32.050229 5.690956
2003-06-30 07:49:44 51°19.24 2°54.08 20.478093 4.427405 32.042676 5.657247
2003-06-30 07:49:50 51°19.25 2°54.11 20.476525 4.427721 32.045236 5.589828
2003-06-30 07:49:56 51°19.26 2°54.14 20.476525 4.427721 32.045236 5.589828
2003-06-30 07:50:00 51°19.27 2°54.16 20.738936 4.426456 32.034459 5.556118
2003-06-30 07:50:04 51°19.27 2°54.18 20.14565 4.427088 32.042265 5.556118
2003-06-30 07:50:10 51°19.28 2°54.21 20.374805 4.426139 32.035122 5.4887
2003-06-30 07:50:16 51°19.29 2°54.24 20.539198 4.42635 32.037366 5.421281
2003-06-30 07:50:20 51°19.29 2°54.26 20.504052 4.426139 32.034048 5.387571
2003-06-30 07:50:24 51°19.3 2°54.28 20.504052 4.426139 32.034048 5.387571
2003-06-30 07:50:30 51°19.31 2°54.31 20.599768 4.423818 32.020107 5.387571
2003-06-30 07:50:36 51°19.31 2°54.34 20.333899 4.424346 32.025448 5.387571
2003-06-30 07:50:40 51°19.32 2°54.36 20.495895 4.423924 32.020423 5.421281
2003-06-30 07:50:44 51°19.32 2°54.38 20.46109 4.422869 32.014574 5.421281
2003-06-30 07:50:50 51°19.33 2°54.41 20.458436 4.422342 32.009234 5.421281
2003-06-30 07:50:54 51°19.34 2°54.43 20.458436 4.422342 32.009234 5.421281
2003-06-30 07:51:00 51°19.35 2°54.46 20.554134 4.423502 32.020769 5.387571
2003-06-30 07:51:04 51°19.35 2°54.48 20.387885 4.42308 32.018966 5.387571
2003-06-30 07:51:10 51°19.36 2°54.51 20.678565 4.421814 32.012483 5.353862
2003-06-30 07:51:16 51°19.37 2°54.54 20.576815 4.422025 32.015264 5.252734
2003-06-30 07:51:20 51°19.37 2°54.56 20.508592 4.421814 32.014631 5.320153
2003-06-30 07:51:24 51°19.38 2°54.59 20.508592 4.421814 32.014631 5.320153
2003-06-30 07:51:30 51°19.38 2°54.62 20.504012 4.422342 32.018899 5.421281
2003-06-30 07:51:34 51°19.39 2°54.64 20.63222 4.421076 32.012415 5.353862
2003-06-30 07:51:40 51°19.4 2°54.67 20.467321 4.420338 32.007513 5.286443
2003-06-30 07:51:44 51°19.4 2°54.69 20.658764 4.420338 32.009662 5.320153
2003-06-30 07:51:50 51°19.41 2°54.72 20.487256 4.419177 32.003493 5.252734
2003-06-30 07:51:54 51°19.42 2°54.74 20.487256 4.419177 32.003493 5.252734
2003-06-30 07:52:00 51°19.42 2°54.77 20.451199 4.418122 31.993881 5.286443
2003-06-30 07:52:04 51°19.43 2°54.79 20.512006 4.417384 31.993274 5.421281
2003-06-30 07:52:10 51°19.44 2°54.82 20.640441 4.416224 31.984419 5.421281
2003-06-30 07:52:16 51°19.45 2°54.85 20.471501 4.415591 31.983054 5.387571
2003-06-30 07:52:20 51°19.45 2°54.87 20.466396 4.414747 31.979444 5.4887
2003-06-30 07:52:24 51°19.46 2°54.89 20.466396 4.414747 31.979444 5.4887
2003-06-30 07:52:30 51°19.46 2°54.92 20.460326 4.413376 31.9721 5.556118
2003-06-30 07:52:34 51°19.47 2°54.94 20.392272 4.412954 31.971368 5.45499
2003-06-30 07:52:40 51°19.48 2°54.97 20.29043 4.41211 31.96722 5.421281
2003-06-30 07:52:50 51°19.49 2°55.02 20.253991 4.410422 31.963754 5.4887
2003-06-30 07:52:54 51°19.5 2°55.04 20.253991 4.410422 31.963754 5.4887
2003-06-30 07:53:00 51°19.5 2°55.07 20.514738 4.410633 31.967074 5.421281
2003-06-30 07:53:04 51°19.51 2°55.09 20.317264 4.409895 31.963779 5.522409
2003-06-30 07:53:10 51°19.52 2°55.12 20.415446 4.408629 31.95621 5.589828
2003-06-30 07:53:14 51°19.52 2°55.14 20.349483 4.40884 31.960605 5.589828
2003-06-30 07:53:20 51°19.53 2°55.17 20.28237 4.407469 31.948959 5.45499
2003-06-30 07:53:24 51°19.54 2°55.19 20.28237 4.407469 31.948959 5.45499
2003-06-30 07:53:30 51°19.54 2°55.22 20.348436 4.406942 31.949519 5.556118
2003-06-30 07:53:36 51°19.55 2°55.25 20.447098 4.406942 31.950594 5.657247
2003-06-30 07:53:40 51°19.56 2°55.27 20.315532 4.406625 31.946955 5.589828
2003-06-30 07:53:44 51°19.56 2°55.29 20.4797 4.405043 31.93521 5.623537
2003-06-30 07:53:50 51°19.57 2°55.32 20.645172 4.404832 31.936723 5.589828
2003-06-30 07:53:56 51°19.58 2°55.35 20.645172 4.404832 31.936723 5.589828
2003-06-30 07:54:00 51°19.58 2°55.37 20.547108 4.404515 31.932548 5.657247
2003-06-30 07:54:04 51°19.59 2°55.39 20.779329 4.403672 31.926248 5.657247
2003-06-30 07:54:10 51°19.6 2°55.42 20.583958 4.403355 31.924221 5.623537
2003-06-30 07:54:16 51°19.6 2°55.45 20.485648 4.401984 31.914184 5.657247
2003-06-30 07:54:20 51°19.61 2°55.47 20.618744 4.403144 31.923585 5.690956
2003-06-30 07:54:24 51°19.62 2°55.49 20.618744 4.403144 31.923585 5.690956
2003-06-30 07:54:30 51°19.62 2°55.52 20.290873 4.402406 31.917066 5.724665
2003-06-30 07:54:36 51°19.63 2°55.55 20.392956 4.402406 31.917066 5.690956
2003-06-30 07:54:40 51°19.64 2°55.57 20.560598 4.402089 31.912356 5.724665
2003-06-30 07:54:44 51°19.64 2°55.59 20.462577 4.401773 31.907647 5.724665
2003-06-30 07:54:50 51°19.65 2°55.62 20.365909 4.401667 31.906256 5.690956
2003-06-30 07:54:56 51°19.66 2°55.65 20.365909 4.401667 31.906256 5.690956
2003-06-30 07:55:00 51°19.66 2°55.67 20.568426 4.401245 31.902839 5.724665
2003-06-30 07:55:04 51°19.67 2°55.69 20.372269 4.400401 31.893859 5.792084
2003-06-30 07:55:10 51°19.68 2°55.72 20.508873 4.400612 31.895568 5.724665
2003-06-30 07:55:16 51°19.69 2°55.75 20.314162 4.400929 31.895986 5.825794
2003-06-30 07:55:20 51°19.69 2°55.77 20.614773 4.400929 31.89545 5.792084
2003-06-30 07:55:24 51°19.7 2°55.79 20.614773 4.400929 31.89545 5.792084
2003-06-30 07:55:30 51°19.71 2°55.82 20.654955 4.40019 31.887327 6.02805
2003-06-30 07:55:36 51°19.71 2°55.85 20.432259 4.400823 31.888701 5.994341
2003-06-30 07:55:40 51°19.72 2°55.87 20.504895 4.400507 31.884532 6.264016
2003-06-30 07:55:44 51°19.73 2°55.89 20.377623 4.39903 31.869363 6.432563
2003-06-30 07:55:50 51°19.73 2°55.92 20.613489 4.400085 31.876296 6.466272
2003-06-30 07:55:56 51°19.74 2°55.95 20.613489 4.400085 31.876296 6.466272
2003-06-30 07:56:00 51°19.75 2°55.98 20.585564 4.399452 31.86689 6.702238
2003-06-30 07:56:04 51°19.75 2°56 20.589737 4.399241 31.861437 6.769657
2003-06-30 07:56:10 51°19.76 2°56.03 20.659966 4.398397 31.850863 6.769657
2003-06-30 07:56:16 51°19.77 2°56.06 20.827337 4.399873 31.856929 6.837076
2003-06-30 07:56:20 51°19.77 2°56.08 20.601734 4.397975 31.838896 6.837076
2003-06-30 07:56:24 51°19.78 2°56.1 20.601734 4.397975 31.838896 6.837076
2003-06-30 07:56:30 51°19.79 2°56.13 20.507226 4.397869 31.833234 6.803366
2003-06-30 07:56:36 51°19.8 2°56.16 20.512167 4.398818 31.834502 6.870785
2003-06-30 07:56:40 51°19.8 2°56.18 20.450958 4.39713 31.820854 6.837076
2003-06-30 07:56:44 51°19.81 2°56.2 20.619787 4.398185 31.825646 6.904494
2003-06-30 07:56:50 51°19.81 2°56.23 20.655236 4.396814 31.811891 6.837076
2003-06-30 07:56:56 51°19.82 2°56.26 20.655236 4.396814 31.811891 6.837076
2003-06-30 07:57:00 51°19.83 2°56.28 20.59387 4.397341 31.813487 6.971913
2003-06-30 07:57:04 51°19.83 2°56.3 20.629533 4.368966 31.579999 7.106751
2003-06-30 07:57:10 51°19.84 2°56.33 20.63214 4.396497 31.799732 7.207879
2003-06-30 07:57:16 51°19.85 2°56.36 20.502123 4.395864 31.791419 7.039332
2003-06-30 07:57:20 51°19.85 2°56.38 20.570112 4.395442 31.785878 7.039332